<?xml version="1.0" encoding="UTF-8" standalone="yes"?>
<gpx
 xmlns="http://www.topografix.com/GPX/1/1"
 creator="OziExplorer Version 3956f - http://www.oziexplorer.com"
 version="1.1"
 xmlns:xsi="http://www.w3.org/2001/XMLSchema-instance"
 xsi:schemaLocation="http://www.topografix.com/GPX/1/1 http://www.topografix.com/GPX/1/1/gpx.xsd">
<metadata>
 <time>2021-06-23T10:03:17Z</time>
 <bounds minlat="31.766856" minlon="34.954456" maxlat="31.798915" maxlon="34.998335"/>
</metadata>
<wpt lat="31.7759380" lon="34.9746840">
 <time>2021-06-23T00:54:21.000Z</time>
 <name>Держитесь </name>
 <cmt>Держитесь правее</cmt>
 <desc>Держитесь правее</desc>
 <sym>Airport</sym>
</wpt>
<wpt lat="31.7767570" lon="34.9720380">
 <time>2021-06-23T00:55:35.000Z</time>
 <name>Поверните </name>
 <cmt>Поверните направо</cmt>
 <desc>Поверните направо</desc>
 <sym>Airport</sym>
</wpt>
<wpt lat="31.7954460" lon="34.9737990">
 <time>2021-06-23T01:11:21.000Z</time>
 <name>FINISH</name>
 <cmt>FINISH</cmt>
 <desc>FINISH</desc>
 <sym>Flag, Blue</sym>
</wpt>
<trk>
 <name>Zora_31km.,750m.V1</name>
 <desc>Zora_31km.,750m.V1</desc>
<trkseg>
<trkpt lat="31.7954510" lon="34.9738370">
<ele>217.000000</ele>
<time>2020-07-28T00:00:00.000Z</time>
</trkpt>
<trkpt lat="31.7951890" lon="34.9736340">
<ele>222.000000</ele>
<time>2020-07-28T00:00:58.000Z</time>
</trkpt>
<trkpt lat="31.7949900" lon="34.9735860">
<ele>227.000000</ele>
<time>2020-07-28T00:01:36.000Z</time>
</trkpt>
<trkpt lat="31.7947940" lon="34.9734800">
<ele>230.000000</ele>
<time>2020-07-28T00:02:16.000Z</time>
</trkpt>
<trkpt lat="31.7944320" lon="34.9731710">
<ele>239.000000</ele>
<time>2020-07-28T00:03:34.000Z</time>
</trkpt>
<trkpt lat="31.7943220" lon="34.9729940">
<ele>241.000000</ele>
<time>2020-07-28T00:04:06.000Z</time>
</trkpt>
<trkpt lat="31.7941910" lon="34.9728780">
<ele>244.000015</ele>
<time>2020-07-28T00:04:34.000Z</time>
</trkpt>
<trkpt lat="31.7939020" lon="34.9727100">
<ele>246.000000</ele>
<time>2020-07-28T00:05:15.000Z</time>
</trkpt>
<trkpt lat="31.7936390" lon="34.9725920">
<ele>248.000000</ele>
<time>2020-07-28T00:05:45.000Z</time>
</trkpt>
<trkpt lat="31.7936080" lon="34.9726560">
<ele>248.000000</ele>
<time>2020-07-28T00:05:52.000Z</time>
</trkpt>
<trkpt lat="31.7935970" lon="34.9726800">
<ele>249.000000</ele>
<time>2020-07-28T00:05:55.000Z</time>
</trkpt>
<trkpt lat="31.7938310" lon="34.9731150">
<ele>248.000000</ele>
<time>2020-07-28T00:06:35.000Z</time>
</trkpt>
<trkpt lat="31.7939060" lon="34.9733180">
<ele>247.000000</ele>
<time>2020-07-28T00:06:51.000Z</time>
</trkpt>
<trkpt lat="31.7939170" lon="34.9734630">
<ele>247.000000</ele>
<time>2020-07-28T00:07:00.000Z</time>
</trkpt>
<trkpt lat="31.7938770" lon="34.9736190">
<ele>248.000000</ele>
<time>2020-07-28T00:07:12.000Z</time>
</trkpt>
<trkpt lat="31.7938250" lon="34.9737370">
<ele>249.000000</ele>
<time>2020-07-28T00:07:21.000Z</time>
</trkpt>
<trkpt lat="31.7935480" lon="34.9740810">
<ele>254.000000</ele>
<time>2020-07-28T00:08:20.000Z</time>
</trkpt>
<trkpt lat="31.7933960" lon="34.9742160">
<ele>257.000000</ele>
<time>2020-07-28T00:08:49.000Z</time>
</trkpt>
<trkpt lat="31.7932070" lon="34.9742090">
<ele>259.000000</ele>
<time>2020-07-28T00:09:18.000Z</time>
</trkpt>
<trkpt lat="31.7930950" lon="34.9742950">
<ele>259.000000</ele>
<time>2020-07-28T00:09:32.000Z</time>
</trkpt>
<trkpt lat="31.7928280" lon="34.9745660">
<ele>259.000000</ele>
<time>2020-07-28T00:10:06.000Z</time>
</trkpt>
<trkpt lat="31.7927100" lon="34.9747070">
<ele>260.000000</ele>
<time>2020-07-28T00:10:21.000Z</time>
</trkpt>
<trkpt lat="31.7924250" lon="34.9749600">
<ele>262.000000</ele>
<time>2020-07-28T00:10:57.000Z</time>
</trkpt>
<trkpt lat="31.7923530" lon="34.9750490">
<ele>262.000000</ele>
<time>2020-07-28T00:11:09.000Z</time>
</trkpt>
<trkpt lat="31.7921950" lon="34.9753740">
<ele>264.000000</ele>
<time>2020-07-28T00:11:43.000Z</time>
</trkpt>
<trkpt lat="31.7921080" lon="34.9754900">
<ele>264.000000</ele>
<time>2020-07-28T00:11:57.000Z</time>
</trkpt>
<trkpt lat="31.7919050" lon="34.9759290">
<ele>266.000000</ele>
<time>2020-07-28T00:12:36.000Z</time>
</trkpt>
<trkpt lat="31.7917470" lon="34.9762180">
<ele>266.000000</ele>
<time>2020-07-28T00:13:02.000Z</time>
</trkpt>
<trkpt lat="31.7914498" lon="34.9765114">
<ele>266.000000</ele>
<time>2020-07-28T00:13:33.000Z</time>
</trkpt>
<trkpt lat="31.7914000" lon="34.9766000">
<ele>265.000000</ele>
<time>2020-07-28T00:13:40.000Z</time>
</trkpt>
<trkpt lat="31.7912460" lon="34.9767080">
<ele>265.000000</ele>
<time>2020-07-28T00:13:54.000Z</time>
</trkpt>
<trkpt lat="31.7910340" lon="34.9768030">
<ele>264.000000</ele>
<time>2020-07-28T00:14:11.000Z</time>
</trkpt>
<trkpt lat="31.7909210" lon="34.9768260">
<ele>264.000000</ele>
<time>2020-07-28T00:14:19.000Z</time>
</trkpt>
<trkpt lat="31.7907370" lon="34.9768100">
<ele>265.000000</ele>
<time>2020-07-28T00:14:34.000Z</time>
</trkpt>
<trkpt lat="31.7902990" lon="34.9768700">
<ele>264.000000</ele>
<time>2020-07-28T00:15:09.000Z</time>
</trkpt>
<trkpt lat="31.7900970" lon="34.9768200">
<ele>264.000000</ele>
<time>2020-07-28T00:15:27.000Z</time>
</trkpt>
<trkpt lat="31.7899910" lon="34.9767650">
<ele>265.000000</ele>
<time>2020-07-28T00:15:41.000Z</time>
</trkpt>
<trkpt lat="31.7895310" lon="34.9765300">
<ele>268.000000</ele>
<time>2020-07-28T00:16:38.000Z</time>
</trkpt>
<trkpt lat="31.7893470" lon="34.9764710">
<ele>269.000000</ele>
<time>2020-07-28T00:16:59.000Z</time>
</trkpt>
<trkpt lat="31.7892430" lon="34.9764600">
<ele>269.000000</ele>
<time>2020-07-28T00:17:05.000Z</time>
</trkpt>
<trkpt lat="31.7890340" lon="34.9764680">
<ele>268.000000</ele>
<time>2020-07-28T00:17:19.000Z</time>
</trkpt>
<trkpt lat="31.7883710" lon="34.9767090">
<ele>259.000000</ele>
<time>2020-07-28T00:18:10.000Z</time>
</trkpt>
<trkpt lat="31.7882510" lon="34.9767130">
<ele>259.000000</ele>
<time>2020-07-28T00:18:21.000Z</time>
</trkpt>
<trkpt lat="31.7880590" lon="34.9767350">
<ele>261.000000</ele>
<time>2020-07-28T00:18:39.000Z</time>
</trkpt>
<trkpt lat="31.7878710" lon="34.9766970">
<ele>264.000000</ele>
<time>2020-07-28T00:18:57.000Z</time>
</trkpt>
<trkpt lat="31.7877930" lon="34.9767730">
<ele>264.000000</ele>
<time>2020-07-28T00:19:06.000Z</time>
</trkpt>
<trkpt lat="31.7879020" lon="34.9774220">
<ele>258.000000</ele>
<time>2020-07-28T00:19:41.000Z</time>
</trkpt>
<trkpt lat="31.7878941" lon="34.9775076">
<ele>257.000000</ele>
<time>2020-07-28T00:19:46.000Z</time>
</trkpt>
<trkpt lat="31.7878850" lon="34.9775580">
<ele>257.000000</ele>
<time>2020-07-28T00:19:49.000Z</time>
</trkpt>
<trkpt lat="31.7877500" lon="34.9778860">
<ele>256.000000</ele>
<time>2020-07-28T00:20:12.000Z</time>
</trkpt>
<trkpt lat="31.7876000" lon="34.9780590">
<ele>255.000000</ele>
<time>2020-07-28T00:20:29.000Z</time>
</trkpt>
<trkpt lat="31.7875510" lon="34.9781510">
<ele>255.000000</ele>
<time>2020-07-28T00:20:36.000Z</time>
</trkpt>
<trkpt lat="31.7874950" lon="34.9781490">
<ele>255.000000</ele>
<time>2020-07-28T00:20:41.000Z</time>
</trkpt>
<trkpt lat="31.7872100" lon="34.9781400">
<ele>257.000000</ele>
<time>2020-07-28T00:21:04.000Z</time>
</trkpt>
<trkpt lat="31.7863400" lon="34.9782900">
<ele>259.000000</ele>
<time>2020-07-28T00:22:28.000Z</time>
</trkpt>
<trkpt lat="31.7859200" lon="34.9782900">
<ele>260.000000</ele>
<time>2020-07-28T00:23:14.000Z</time>
</trkpt>
<trkpt lat="31.7858760" lon="34.9782740">
<ele>261.000000</ele>
<time>2020-07-28T00:23:19.000Z</time>
</trkpt>
<trkpt lat="31.7856200" lon="34.9781800">
<ele>263.000000</ele>
<time>2020-07-28T00:23:49.000Z</time>
</trkpt>
<trkpt lat="31.7852000" lon="34.9778000">
<ele>268.000000</ele>
<time>2020-07-28T00:24:53.000Z</time>
</trkpt>
<trkpt lat="31.7849080" lon="34.9776170">
<ele>270.000000</ele>
<time>2020-07-28T00:25:34.000Z</time>
</trkpt>
<trkpt lat="31.7846100" lon="34.9775400">
<ele>272.000000</ele>
<time>2020-07-28T00:26:11.000Z</time>
</trkpt>
<trkpt lat="31.7845600" lon="34.9774500">
<ele>273.000000</ele>
<time>2020-07-28T00:26:23.000Z</time>
</trkpt>
<trkpt lat="31.7846030" lon="34.9773540">
<ele>275.000000</ele>
<time>2020-07-28T00:26:34.000Z</time>
</trkpt>
<trkpt lat="31.7846670" lon="34.9772920">
<ele>276.000000</ele>
<time>2020-07-28T00:26:44.000Z</time>
</trkpt>
<trkpt lat="31.7849150" lon="34.9772570">
<ele>275.000000</ele>
<time>2020-07-28T00:27:14.000Z</time>
</trkpt>
<trkpt lat="31.7852100" lon="34.9771600">
<ele>276.000000</ele>
<time>2020-07-28T00:27:49.000Z</time>
</trkpt>
<trkpt lat="31.7855145" lon="34.9769227">
<ele>280.000000</ele>
<time>2020-07-28T00:28:31.000Z</time>
</trkpt>
<trkpt lat="31.7856020" lon="34.9769190">
<ele>280.000000</ele>
<time>2020-07-28T00:28:40.000Z</time>
</trkpt>
<trkpt lat="31.7858910" lon="34.9770510">
<ele>278.000000</ele>
<time>2020-07-28T00:29:10.000Z</time>
</trkpt>
<trkpt lat="31.7859960" lon="34.9770510">
<ele>278.000000</ele>
<time>2020-07-28T00:29:19.000Z</time>
</trkpt>
<trkpt lat="31.7860200" lon="34.9769400">
<ele>280.000000</ele>
<time>2020-07-28T00:29:29.000Z</time>
</trkpt>
<trkpt lat="31.7859570" lon="34.9768200">
<ele>282.000000</ele>
<time>2020-07-28T00:29:40.000Z</time>
</trkpt>
<trkpt lat="31.7854440" lon="34.9765470">
<ele>287.000000</ele>
<time>2020-07-28T00:30:45.000Z</time>
</trkpt>
<trkpt lat="31.7854510" lon="34.9764690">
<ele>289.000000</ele>
<time>2020-07-28T00:30:54.000Z</time>
</trkpt>
<trkpt lat="31.7854900" lon="34.9764500">
<ele>289.000000</ele>
<time>2020-07-28T00:30:59.000Z</time>
</trkpt>
<trkpt lat="31.7857060" lon="34.9764660">
<ele>288.000000</ele>
<time>2020-07-28T00:31:25.000Z</time>
</trkpt>
<trkpt lat="31.7864400" lon="34.9766200">
<ele>286.000000</ele>
<time>2020-07-28T00:32:23.000Z</time>
</trkpt>
<trkpt lat="31.7865400" lon="34.9765800">
<ele>286.000000</ele>
<time>2020-07-28T00:32:31.000Z</time>
</trkpt>
<trkpt lat="31.7866700" lon="34.9764000">
<ele>288.000000</ele>
<time>2020-07-28T00:32:56.000Z</time>
</trkpt>
<trkpt lat="31.7867300" lon="34.9761000">
<ele>289.000000</ele>
<time>2020-07-28T00:33:28.000Z</time>
</trkpt>
<trkpt lat="31.7867240" lon="34.9760610">
<ele>289.000000</ele>
<time>2020-07-28T00:33:32.000Z</time>
</trkpt>
<trkpt lat="31.7866800" lon="34.9757600">
<ele>292.000000</ele>
<time>2020-07-28T00:34:04.000Z</time>
</trkpt>
<trkpt lat="31.7863060" lon="34.9752140">
<ele>299.000000</ele>
<time>2020-07-28T00:35:36.000Z</time>
</trkpt>
<trkpt lat="31.7860800" lon="34.9748080">
<ele>304.000000</ele>
<time>2020-07-28T00:36:34.000Z</time>
</trkpt>
<trkpt lat="31.7858800" lon="34.9745900">
<ele>307.000000</ele>
<time>2020-07-28T00:37:03.000Z</time>
</trkpt>
<trkpt lat="31.7858400" lon="34.9743800">
<ele>306.000000</ele>
<time>2020-07-28T00:37:23.000Z</time>
</trkpt>
<trkpt lat="31.7858520" lon="34.9742210">
<ele>306.000000</ele>
<time>2020-07-28T00:37:38.000Z</time>
</trkpt>
<trkpt lat="31.7856680" lon="34.9743710">
<ele>308.000000</ele>
<time>2020-07-28T00:38:01.000Z</time>
</trkpt>
<trkpt lat="31.7855333" lon="34.9745810">
<ele>310.000000</ele>
<time>2020-07-28T00:38:24.000Z</time>
</trkpt>
<trkpt lat="31.7855260" lon="34.9746580">
<ele>310.000000</ele>
<time>2020-07-28T00:38:30.000Z</time>
</trkpt>
<trkpt lat="31.7853300" lon="34.9748100">
<ele>311.000000</ele>
<time>2020-07-28T00:38:54.000Z</time>
</trkpt>
<trkpt lat="31.7852660" lon="34.9749240">
<ele>310.000000</ele>
<time>2020-07-28T00:39:06.000Z</time>
</trkpt>
<trkpt lat="31.7852030" lon="34.9750850">
<ele>309.000000</ele>
<time>2020-07-28T00:39:18.000Z</time>
</trkpt>
<trkpt lat="31.7851230" lon="34.9751680">
<ele>309.000000</ele>
<time>2020-07-28T00:39:26.000Z</time>
</trkpt>
<trkpt lat="31.7847650" lon="34.9752890">
<ele>309.000000</ele>
<time>2020-07-28T00:39:54.000Z</time>
</trkpt>
<trkpt lat="31.7846370" lon="34.9754330">
<ele>308.000000</ele>
<time>2020-07-28T00:40:07.000Z</time>
</trkpt>
<trkpt lat="31.7844800" lon="34.9755700">
<ele>307.000000</ele>
<time>2020-07-28T00:40:25.000Z</time>
</trkpt>
<trkpt lat="31.7844030" lon="34.9755530">
<ele>307.000000</ele>
<time>2020-07-28T00:40:33.000Z</time>
</trkpt>
<trkpt lat="31.7825240" lon="34.9751400">
<ele>310.000000</ele>
<time>2020-07-28T00:43:21.000Z</time>
</trkpt>
<trkpt lat="31.7819340" lon="34.9749640">
<ele>316.000000</ele>
<time>2020-07-28T00:44:36.000Z</time>
</trkpt>
<trkpt lat="31.7818620" lon="34.9749910">
<ele>316.000000</ele>
<time>2020-07-28T00:44:47.000Z</time>
</trkpt>
<trkpt lat="31.7816660" lon="34.9749750">
<ele>317.000000</ele>
<time>2020-07-28T00:45:15.000Z</time>
</trkpt>
<trkpt lat="31.7814800" lon="34.9748600">
<ele>321.000031</ele>
<time>2020-07-28T00:45:44.000Z</time>
</trkpt>
<trkpt lat="31.7811680" lon="34.9748240">
<ele>323.999969</ele>
<time>2020-07-28T00:46:11.000Z</time>
</trkpt>
<trkpt lat="31.7810550" lon="34.9748730">
<ele>323.999969</ele>
<time>2020-07-28T00:46:22.000Z</time>
</trkpt>
<trkpt lat="31.7809980" lon="34.9749450">
<ele>323.999969</ele>
<time>2020-07-28T00:46:29.000Z</time>
</trkpt>
<trkpt lat="31.7810280" lon="34.9750580">
<ele>323.000000</ele>
<time>2020-07-28T00:46:38.000Z</time>
</trkpt>
<trkpt lat="31.7810650" lon="34.9751160">
<ele>323.000000</ele>
<time>2020-07-28T00:46:43.000Z</time>
</trkpt>
<trkpt lat="31.7810800" lon="34.9751550">
<ele>323.000000</ele>
<time>2020-07-28T00:46:46.000Z</time>
</trkpt>
<trkpt lat="31.7811970" lon="34.9752430">
<ele>322.000000</ele>
<time>2020-07-28T00:46:57.000Z</time>
</trkpt>
<trkpt lat="31.7812580" lon="34.9753340">
<ele>321.000031</ele>
<time>2020-07-28T00:47:04.000Z</time>
</trkpt>
<trkpt lat="31.7812990" lon="34.9754460">
<ele>320.000000</ele>
<time>2020-07-28T00:47:11.000Z</time>
</trkpt>
<trkpt lat="31.7813040" lon="34.9758120">
<ele>320.000000</ele>
<time>2020-07-28T00:47:32.000Z</time>
</trkpt>
<trkpt lat="31.7813540" lon="34.9759430">
<ele>319.000000</ele>
<time>2020-07-28T00:47:40.000Z</time>
</trkpt>
<trkpt lat="31.7815290" lon="34.9760960">
<ele>315.000000</ele>
<time>2020-07-28T00:47:55.000Z</time>
</trkpt>
<trkpt lat="31.7815710" lon="34.9761710">
<ele>314.000000</ele>
<time>2020-07-28T00:47:59.000Z</time>
</trkpt>
<trkpt lat="31.7816550" lon="34.9765600">
<ele>311.000000</ele>
<time>2020-07-28T00:48:21.000Z</time>
</trkpt>
<trkpt lat="31.7816590" lon="34.9768850">
<ele>310.000000</ele>
<time>2020-07-28T00:48:39.000Z</time>
</trkpt>
<trkpt lat="31.7816320" lon="34.9770540">
<ele>309.000000</ele>
<time>2020-07-28T00:48:53.000Z</time>
</trkpt>
<trkpt lat="31.7816430" lon="34.9772570">
<ele>308.000000</ele>
<time>2020-07-28T00:49:11.000Z</time>
</trkpt>
<trkpt lat="31.7816320" lon="34.9773430">
<ele>308.000000</ele>
<time>2020-07-28T00:49:18.000Z</time>
</trkpt>
<trkpt lat="31.7816020" lon="34.9774420">
<ele>308.000000</ele>
<time>2020-07-28T00:49:27.000Z</time>
</trkpt>
<trkpt lat="31.7815110" lon="34.9775740">
<ele>309.000000</ele>
<time>2020-07-28T00:49:42.000Z</time>
</trkpt>
<trkpt lat="31.7814260" lon="34.9776460">
<ele>311.000000</ele>
<time>2020-07-28T00:49:53.000Z</time>
</trkpt>
<trkpt lat="31.7813220" lon="34.9776890">
<ele>312.999969</ele>
<time>2020-07-28T00:50:04.000Z</time>
</trkpt>
<trkpt lat="31.7812420" lon="34.9778110">
<ele>315.000000</ele>
<time>2020-07-28T00:50:18.000Z</time>
</trkpt>
<trkpt lat="31.7811940" lon="34.9779980">
<ele>316.000000</ele>
<time>2020-07-28T00:50:36.000Z</time>
</trkpt>
<trkpt lat="31.7812790" lon="34.9782230">
<ele>314.000000</ele>
<time>2020-07-28T00:50:59.000Z</time>
</trkpt>
<trkpt lat="31.7812880" lon="34.9783110">
<ele>314.000000</ele>
<time>2020-07-28T00:51:07.000Z</time>
</trkpt>
<trkpt lat="31.7812240" lon="34.9783280">
<ele>315.000000</ele>
<time>2020-07-28T00:51:14.000Z</time>
</trkpt>
<trkpt lat="31.7811460" lon="34.9783490">
<ele>317.000000</ele>
<time>2020-07-28T00:51:23.000Z</time>
</trkpt>
<trkpt lat="31.7811320" lon="34.9783960">
<ele>317.000000</ele>
<time>2020-07-28T00:51:28.000Z</time>
</trkpt>
<trkpt lat="31.7811380" lon="34.9784380">
<ele>318.000000</ele>
<time>2020-07-28T00:51:32.000Z</time>
</trkpt>
<trkpt lat="31.7811880" lon="34.9785150">
<ele>318.000000</ele>
<time>2020-07-28T00:51:44.000Z</time>
</trkpt>
<trkpt lat="31.7812240" lon="34.9785710">
<ele>318.000000</ele>
<time>2020-07-28T00:51:52.000Z</time>
</trkpt>
<trkpt lat="31.7812720" lon="34.9787540">
<ele>319.000000</ele>
<time>2020-07-28T00:52:14.000Z</time>
</trkpt>
<trkpt lat="31.7812170" lon="34.9789500">
<ele>323.000000</ele>
<time>2020-07-28T00:52:38.000Z</time>
</trkpt>
<trkpt lat="31.7812780" lon="34.9796140">
<ele>325.000000</ele>
<time>2020-07-28T00:53:44.000Z</time>
</trkpt>
<trkpt lat="31.7812420" lon="34.9798660">
<ele>326.000000</ele>
<time>2020-07-28T00:54:04.000Z</time>
</trkpt>
<trkpt lat="31.7811990" lon="34.9800280">
<ele>326.999969</ele>
<time>2020-07-28T00:54:18.000Z</time>
</trkpt>
<trkpt lat="31.7811300" lon="34.9801770">
<ele>326.999969</ele>
<time>2020-07-28T00:54:32.000Z</time>
</trkpt>
<trkpt lat="31.7808520" lon="34.9805430">
<ele>326.999969</ele>
<time>2020-07-28T00:55:03.000Z</time>
</trkpt>
<trkpt lat="31.7807770" lon="34.9806960">
<ele>326.000000</ele>
<time>2020-07-28T00:55:14.000Z</time>
</trkpt>
<trkpt lat="31.7806970" lon="34.9809500">
<ele>323.999969</ele>
<time>2020-07-28T00:55:30.000Z</time>
</trkpt>
<trkpt lat="31.7803780" lon="34.9814070">
<ele>326.999969</ele>
<time>2020-07-28T00:56:14.000Z</time>
</trkpt>
<trkpt lat="31.7802640" lon="34.9818400">
<ele>325.000000</ele>
<time>2020-07-28T00:56:47.000Z</time>
</trkpt>
<trkpt lat="31.7802360" lon="34.9821350">
<ele>323.999969</ele>
<time>2020-07-28T00:57:09.000Z</time>
</trkpt>
<trkpt lat="31.7801770" lon="34.9823340">
<ele>323.999969</ele>
<time>2020-07-28T00:57:25.000Z</time>
</trkpt>
<trkpt lat="31.7800200" lon="34.9826650">
<ele>326.000000</ele>
<time>2020-07-28T00:57:53.000Z</time>
</trkpt>
<trkpt lat="31.7799550" lon="34.9830820">
<ele>328.000000</ele>
<time>2020-07-28T00:58:32.000Z</time>
</trkpt>
<trkpt lat="31.7798530" lon="34.9835330">
<ele>330.000000</ele>
<time>2020-07-28T00:59:15.000Z</time>
</trkpt>
<trkpt lat="31.7797770" lon="34.9837250">
<ele>331.000000</ele>
<time>2020-07-28T00:59:35.000Z</time>
</trkpt>
<trkpt lat="31.7796400" lon="34.9839210">
<ele>334.000000</ele>
<time>2020-07-28T01:00:00.000Z</time>
</trkpt>
<trkpt lat="31.7794700" lon="34.9840919">
<ele>336.000000</ele>
<time>2020-07-28T01:00:26.000Z</time>
</trkpt>
<trkpt lat="31.7794420" lon="34.9842150">
<ele>336.000000</ele>
<time>2020-07-28T01:00:38.000Z</time>
</trkpt>
<trkpt lat="31.7793780" lon="34.9845460">
<ele>334.000000</ele>
<time>2020-07-28T01:01:06.000Z</time>
</trkpt>
<trkpt lat="31.7793220" lon="34.9847020">
<ele>333.000000</ele>
<time>2020-07-28T01:01:17.000Z</time>
</trkpt>
<trkpt lat="31.7792100" lon="34.9848060">
<ele>334.000000</ele>
<time>2020-07-28T01:01:28.000Z</time>
</trkpt>
<trkpt lat="31.7790720" lon="34.9848560">
<ele>334.000000</ele>
<time>2020-07-28T01:01:40.000Z</time>
</trkpt>
<trkpt lat="31.7784630" lon="34.9849250">
<ele>335.000031</ele>
<time>2020-07-28T01:02:28.000Z</time>
</trkpt>
<trkpt lat="31.7782460" lon="34.9849260">
<ele>335.000031</ele>
<time>2020-07-28T01:02:46.000Z</time>
</trkpt>
<trkpt lat="31.7779220" lon="34.9849680">
<ele>333.000000</ele>
<time>2020-07-28T01:03:11.000Z</time>
</trkpt>
<trkpt lat="31.7776550" lon="34.9853340">
<ele>330.000000</ele>
<time>2020-07-28T01:03:39.000Z</time>
</trkpt>
<trkpt lat="31.7774580" lon="34.9855500">
<ele>330.000000</ele>
<time>2020-07-28T01:03:58.000Z</time>
</trkpt>
<trkpt lat="31.7773640" lon="34.9857110">
<ele>331.000000</ele>
<time>2020-07-28T01:04:14.000Z</time>
</trkpt>
<trkpt lat="31.7773560" lon="34.9857910">
<ele>331.000000</ele>
<time>2020-07-28T01:04:20.000Z</time>
</trkpt>
<trkpt lat="31.7773670" lon="34.9858620">
<ele>331.000000</ele>
<time>2020-07-28T01:04:26.000Z</time>
</trkpt>
<trkpt lat="31.7774560" lon="34.9861340">
<ele>329.000000</ele>
<time>2020-07-28T01:04:49.000Z</time>
</trkpt>
<trkpt lat="31.7774250" lon="34.9862450">
<ele>329.000000</ele>
<time>2020-07-28T01:04:59.000Z</time>
</trkpt>
<trkpt lat="31.7773240" lon="34.9862790">
<ele>331.000000</ele>
<time>2020-07-28T01:05:09.000Z</time>
</trkpt>
<trkpt lat="31.7772550" lon="34.9862600">
<ele>332.000000</ele>
<time>2020-07-28T01:05:15.000Z</time>
</trkpt>
<trkpt lat="31.7771230" lon="34.9861830">
<ele>335.000031</ele>
<time>2020-07-28T01:05:33.000Z</time>
</trkpt>
<trkpt lat="31.7770570" lon="34.9862200">
<ele>336.000000</ele>
<time>2020-07-28T01:05:42.000Z</time>
</trkpt>
<trkpt lat="31.7770330" lon="34.9862990">
<ele>336.000000</ele>
<time>2020-07-28T01:05:51.000Z</time>
</trkpt>
<trkpt lat="31.7769890" lon="34.9863770">
<ele>337.000000</ele>
<time>2020-07-28T01:06:00.000Z</time>
</trkpt>
<trkpt lat="31.7768740" lon="34.9867180">
<ele>337.999969</ele>
<time>2020-07-28T01:06:39.000Z</time>
</trkpt>
<trkpt lat="31.7768710" lon="34.9867720">
<ele>337.999969</ele>
<time>2020-07-28T01:06:44.000Z</time>
</trkpt>
<trkpt lat="31.7769220" lon="34.9869410">
<ele>339.000000</ele>
<time>2020-07-28T01:07:00.000Z</time>
</trkpt>
<trkpt lat="31.7771260" lon="34.9872460">
<ele>337.999969</ele>
<time>2020-07-28T01:07:27.000Z</time>
</trkpt>
<trkpt lat="31.7775880" lon="34.9876720">
<ele>339.000000</ele>
<time>2020-07-28T01:08:17.000Z</time>
</trkpt>
<trkpt lat="31.7780000" lon="34.9879420">
<ele>341.000000</ele>
<time>2020-07-28T01:09:05.000Z</time>
</trkpt>
<trkpt lat="31.7784410" lon="34.9881100">
<ele>341.000000</ele>
<time>2020-07-28T01:09:50.000Z</time>
</trkpt>
<trkpt lat="31.7785470" lon="34.9881840">
<ele>341.000000</ele>
<time>2020-07-28T01:10:02.000Z</time>
</trkpt>
<trkpt lat="31.7787503" lon="34.9883701">
<ele>343.000000</ele>
<time>2020-07-28T01:10:26.000Z</time>
</trkpt>
<trkpt lat="31.7787920" lon="34.9884510">
<ele>343.000000</ele>
<time>2020-07-28T01:10:33.000Z</time>
</trkpt>
<trkpt lat="31.7788290" lon="34.9885860">
<ele>343.000000</ele>
<time>2020-07-28T01:10:46.000Z</time>
</trkpt>
<trkpt lat="31.7788200" lon="34.9886560">
<ele>343.000000</ele>
<time>2020-07-28T01:10:53.000Z</time>
</trkpt>
<trkpt lat="31.7785640" lon="34.9891950">
<ele>349.000031</ele>
<time>2020-07-28T01:11:54.000Z</time>
</trkpt>
<trkpt lat="31.7785170" lon="34.9893290">
<ele>349.000031</ele>
<time>2020-07-28T01:12:08.000Z</time>
</trkpt>
<trkpt lat="31.7785390" lon="34.9903000">
<ele>341.000000</ele>
<time>2020-07-28T01:13:02.000Z</time>
</trkpt>
<trkpt lat="31.7786400" lon="34.9905140">
<ele>339.000000</ele>
<time>2020-07-28T01:13:16.000Z</time>
</trkpt>
<trkpt lat="31.7787650" lon="34.9906210">
<ele>337.999969</ele>
<time>2020-07-28T01:13:26.000Z</time>
</trkpt>
<trkpt lat="31.7790890" lon="34.9907480">
<ele>336.000000</ele>
<time>2020-07-28T01:13:50.000Z</time>
</trkpt>
<trkpt lat="31.7801780" lon="34.9915700">
<ele>343.000000</ele>
<time>2020-07-28T01:16:03.000Z</time>
</trkpt>
<trkpt lat="31.7803060" lon="34.9916470">
<ele>344.000000</ele>
<time>2020-07-28T01:16:17.000Z</time>
</trkpt>
<trkpt lat="31.7803990" lon="34.9916830">
<ele>344.000000</ele>
<time>2020-07-28T01:16:27.000Z</time>
</trkpt>
<trkpt lat="31.7809250" lon="34.9917850">
<ele>342.000000</ele>
<time>2020-07-28T01:17:13.000Z</time>
</trkpt>
<trkpt lat="31.7816810" lon="34.9920310">
<ele>341.000000</ele>
<time>2020-07-28T01:18:17.000Z</time>
</trkpt>
<trkpt lat="31.7817330" lon="34.9920270">
<ele>342.000000</ele>
<time>2020-07-28T01:18:22.000Z</time>
</trkpt>
<trkpt lat="31.7818070" lon="34.9920030">
<ele>343.000000</ele>
<time>2020-07-28T01:18:28.000Z</time>
</trkpt>
<trkpt lat="31.7818960" lon="34.9918900">
<ele>343.000000</ele>
<time>2020-07-28T01:18:40.000Z</time>
</trkpt>
<trkpt lat="31.7819330" lon="34.9917300">
<ele>343.000000</ele>
<time>2020-07-28T01:18:52.000Z</time>
</trkpt>
<trkpt lat="31.7820000" lon="34.9911310">
<ele>339.000000</ele>
<time>2020-07-28T01:19:26.000Z</time>
</trkpt>
<trkpt lat="31.7819820" lon="34.9907120">
<ele>335.000031</ele>
<time>2020-07-28T01:19:47.000Z</time>
</trkpt>
<trkpt lat="31.7819340" lon="34.9902200">
<ele>331.000000</ele>
<time>2020-07-28T01:20:17.000Z</time>
</trkpt>
<trkpt lat="31.7819370" lon="34.9900540">
<ele>330.000000</ele>
<time>2020-07-28T01:20:27.000Z</time>
</trkpt>
<trkpt lat="31.7819600" lon="34.9899900">
<ele>329.000000</ele>
<time>2020-07-28T01:20:31.000Z</time>
</trkpt>
<trkpt lat="31.7820080" lon="34.9899410">
<ele>329.000000</ele>
<time>2020-07-28T01:20:35.000Z</time>
</trkpt>
<trkpt lat="31.7820750" lon="34.9899250">
<ele>330.000000</ele>
<time>2020-07-28T01:20:40.000Z</time>
</trkpt>
<trkpt lat="31.7822660" lon="34.9899920">
<ele>332.000000</ele>
<time>2020-07-28T01:20:55.000Z</time>
</trkpt>
<trkpt lat="31.7823420" lon="34.9899960">
<ele>333.000000</ele>
<time>2020-07-28T01:21:00.000Z</time>
</trkpt>
<trkpt lat="31.7826500" lon="34.9899170">
<ele>332.000000</ele>
<time>2020-07-28T01:21:24.000Z</time>
</trkpt>
<trkpt lat="31.7827770" lon="34.9898680">
<ele>330.000000</ele>
<time>2020-07-28T01:21:34.000Z</time>
</trkpt>
<trkpt lat="31.7828700" lon="34.9898740">
<ele>329.000000</ele>
<time>2020-07-28T01:21:41.000Z</time>
</trkpt>
<trkpt lat="31.7829780" lon="34.9899420">
<ele>329.000000</ele>
<time>2020-07-28T01:21:53.000Z</time>
</trkpt>
<trkpt lat="31.7830590" lon="34.9900620">
<ele>330.000000</ele>
<time>2020-07-28T01:22:11.000Z</time>
</trkpt>
<trkpt lat="31.7831250" lon="34.9902650">
<ele>332.000000</ele>
<time>2020-07-28T01:22:36.000Z</time>
</trkpt>
<trkpt lat="31.7832100" lon="34.9906460">
<ele>336.000000</ele>
<time>2020-07-28T01:23:22.000Z</time>
</trkpt>
<trkpt lat="31.7833680" lon="34.9910630">
<ele>340.000000</ele>
<time>2020-07-28T01:24:13.000Z</time>
</trkpt>
<trkpt lat="31.7834920" lon="34.9912940">
<ele>343.000000</ele>
<time>2020-07-28T01:24:43.000Z</time>
</trkpt>
<trkpt lat="31.7836330" lon="34.9914770">
<ele>344.000000</ele>
<time>2020-07-28T01:25:10.000Z</time>
</trkpt>
<trkpt lat="31.7839100" lon="34.9917210">
<ele>345.000000</ele>
<time>2020-07-28T01:25:50.000Z</time>
</trkpt>
<trkpt lat="31.7841729" lon="34.9918449">
<ele>345.000000</ele>
<time>2020-07-28T01:26:20.000Z</time>
</trkpt>
<trkpt lat="31.7842240" lon="34.9918640">
<ele>346.000031</ele>
<time>2020-07-28T01:26:26.000Z</time>
</trkpt>
<trkpt lat="31.7846130" lon="34.9919160">
<ele>349.000031</ele>
<time>2020-07-28T01:27:03.000Z</time>
</trkpt>
<trkpt lat="31.7849100" lon="34.9918460">
<ele>350.000000</ele>
<time>2020-07-28T01:27:27.000Z</time>
</trkpt>
<trkpt lat="31.7849700" lon="34.9918010">
<ele>349.000031</ele>
<time>2020-07-28T01:27:32.000Z</time>
</trkpt>
<trkpt lat="31.7850050" lon="34.9917470">
<ele>349.000031</ele>
<time>2020-07-28T01:27:37.000Z</time>
</trkpt>
<trkpt lat="31.7850530" lon="34.9916010">
<ele>348.000000</ele>
<time>2020-07-28T01:27:47.000Z</time>
</trkpt>
<trkpt lat="31.7850540" lon="34.9914450">
<ele>347.000000</ele>
<time>2020-07-28T01:27:57.000Z</time>
</trkpt>
<trkpt lat="31.7849630" lon="34.9911630">
<ele>344.000000</ele>
<time>2020-07-28T01:28:12.000Z</time>
</trkpt>
<trkpt lat="31.7849030" lon="34.9907870">
<ele>340.000000</ele>
<time>2020-07-28T01:28:32.000Z</time>
</trkpt>
<trkpt lat="31.7849380" lon="34.9905310">
<ele>339.000000</ele>
<time>2020-07-28T01:28:46.000Z</time>
</trkpt>
<trkpt lat="31.7850020" lon="34.9903600">
<ele>339.000000</ele>
<time>2020-07-28T01:28:58.000Z</time>
</trkpt>
<trkpt lat="31.7850880" lon="34.9902260">
<ele>339.000000</ele>
<time>2020-07-28T01:29:09.000Z</time>
</trkpt>
<trkpt lat="31.7851610" lon="34.9901510">
<ele>337.999969</ele>
<time>2020-07-28T01:29:16.000Z</time>
</trkpt>
<trkpt lat="31.7853340" lon="34.9900250">
<ele>337.999969</ele>
<time>2020-07-28T01:29:31.000Z</time>
</trkpt>
<trkpt lat="31.7854640" lon="34.9899590">
<ele>337.000000</ele>
<time>2020-07-28T01:29:42.000Z</time>
</trkpt>
<trkpt lat="31.7855580" lon="34.9899600">
<ele>337.000000</ele>
<time>2020-07-28T01:29:52.000Z</time>
</trkpt>
<trkpt lat="31.7858560" lon="34.9901660">
<ele>341.000000</ele>
<time>2020-07-28T01:30:29.000Z</time>
</trkpt>
<trkpt lat="31.7859250" lon="34.9901760">
<ele>341.000000</ele>
<time>2020-07-28T01:30:37.000Z</time>
</trkpt>
<trkpt lat="31.7859930" lon="34.9901600">
<ele>341.000000</ele>
<time>2020-07-28T01:30:44.000Z</time>
</trkpt>
<trkpt lat="31.7861440" lon="34.9900520">
<ele>341.000000</ele>
<time>2020-07-28T01:31:04.000Z</time>
</trkpt>
<trkpt lat="31.7863440" lon="34.9896820">
<ele>339.000000</ele>
<time>2020-07-28T01:31:30.000Z</time>
</trkpt>
<trkpt lat="31.7863660" lon="34.9895390">
<ele>337.999969</ele>
<time>2020-07-28T01:31:38.000Z</time>
</trkpt>
<trkpt lat="31.7863920" lon="34.9890590">
<ele>334.000000</ele>
<time>2020-07-28T01:32:04.000Z</time>
</trkpt>
<trkpt lat="31.7864730" lon="34.9884200">
<ele>334.000000</ele>
<time>2020-07-28T01:32:48.000Z</time>
</trkpt>
<trkpt lat="31.7864740" lon="34.9882510">
<ele>334.000000</ele>
<time>2020-07-28T01:33:00.000Z</time>
</trkpt>
<trkpt lat="31.7864180" lon="34.9876260">
<ele>334.000000</ele>
<time>2020-07-28T01:33:43.000Z</time>
</trkpt>
<trkpt lat="31.7864180" lon="34.9871290">
<ele>334.000000</ele>
<time>2020-07-28T01:34:17.000Z</time>
</trkpt>
<trkpt lat="31.7864460" lon="34.9866540">
<ele>333.000000</ele>
<time>2020-07-28T01:34:52.000Z</time>
</trkpt>
<trkpt lat="31.7864760" lon="34.9865940">
<ele>333.000000</ele>
<time>2020-07-28T01:34:57.000Z</time>
</trkpt>
<trkpt lat="31.7865170" lon="34.9865600">
<ele>333.000000</ele>
<time>2020-07-28T01:35:02.000Z</time>
</trkpt>
<trkpt lat="31.7865580" lon="34.9865510">
<ele>333.000000</ele>
<time>2020-07-28T01:35:05.000Z</time>
</trkpt>
<trkpt lat="31.7867220" lon="34.9865810">
<ele>335.000031</ele>
<time>2020-07-28T01:35:20.000Z</time>
</trkpt>
<trkpt lat="31.7871930" lon="34.9868050">
<ele>335.000031</ele>
<time>2020-07-28T01:36:04.000Z</time>
</trkpt>
<trkpt lat="31.7872780" lon="34.9868820">
<ele>335.000031</ele>
<time>2020-07-28T01:36:13.000Z</time>
</trkpt>
<trkpt lat="31.7874010" lon="34.9871120">
<ele>336.000000</ele>
<time>2020-07-28T01:36:34.000Z</time>
</trkpt>
<trkpt lat="31.7874580" lon="34.9872990">
<ele>336.000000</ele>
<time>2020-07-28T01:36:50.000Z</time>
</trkpt>
<trkpt lat="31.7874750" lon="34.9874130">
<ele>337.000000</ele>
<time>2020-07-28T01:36:59.000Z</time>
</trkpt>
<trkpt lat="31.7874600" lon="34.9876310">
<ele>337.000000</ele>
<time>2020-07-28T01:37:16.000Z</time>
</trkpt>
<trkpt lat="31.7872980" lon="34.9881750">
<ele>337.999969</ele>
<time>2020-07-28T01:38:00.000Z</time>
</trkpt>
<trkpt lat="31.7872970" lon="34.9882900">
<ele>337.999969</ele>
<time>2020-07-28T01:38:08.000Z</time>
</trkpt>
<trkpt lat="31.7873180" lon="34.9883910">
<ele>337.999969</ele>
<time>2020-07-28T01:38:15.000Z</time>
</trkpt>
<trkpt lat="31.7874280" lon="34.9886700">
<ele>337.999969</ele>
<time>2020-07-28T01:38:36.000Z</time>
</trkpt>
<trkpt lat="31.7875841" lon="34.9895640">
<ele>336.000000</ele>
<time>2020-07-28T01:39:36.000Z</time>
</trkpt>
<trkpt lat="31.7876060" lon="34.9897620">
<ele>336.000000</ele>
<time>2020-07-28T01:39:49.000Z</time>
</trkpt>
<trkpt lat="31.7875980" lon="34.9898760">
<ele>336.000000</ele>
<time>2020-07-28T01:39:57.000Z</time>
</trkpt>
<trkpt lat="31.7875550" lon="34.9900130">
<ele>337.000000</ele>
<time>2020-07-28T01:40:09.000Z</time>
</trkpt>
<trkpt lat="31.7873440" lon="34.9903460">
<ele>337.999969</ele>
<time>2020-07-28T01:40:45.000Z</time>
</trkpt>
<trkpt lat="31.7872340" lon="34.9906860">
<ele>339.000000</ele>
<time>2020-07-28T01:41:16.000Z</time>
</trkpt>
<trkpt lat="31.7872040" lon="34.9908570">
<ele>339.000000</ele>
<time>2020-07-28T01:41:27.000Z</time>
</trkpt>
<trkpt lat="31.7872220" lon="34.9912440">
<ele>337.000000</ele>
<time>2020-07-28T01:41:50.000Z</time>
</trkpt>
<trkpt lat="31.7872040" lon="34.9916890">
<ele>335.000031</ele>
<time>2020-07-28T01:42:17.000Z</time>
</trkpt>
<trkpt lat="31.7872150" lon="34.9918750">
<ele>334.000000</ele>
<time>2020-07-28T01:42:31.000Z</time>
</trkpt>
<trkpt lat="31.7872150" lon="34.9919260">
<ele>334.000000</ele>
<time>2020-07-28T01:42:35.000Z</time>
</trkpt>
<trkpt lat="31.7871830" lon="34.9921960">
<ele>334.000000</ele>
<time>2020-07-28T01:42:55.000Z</time>
</trkpt>
<trkpt lat="31.7871840" lon="34.9922750">
<ele>334.000000</ele>
<time>2020-07-28T01:43:01.000Z</time>
</trkpt>
<trkpt lat="31.7871370" lon="34.9924090">
<ele>335.000031</ele>
<time>2020-07-28T01:43:12.000Z</time>
</trkpt>
<trkpt lat="31.7869890" lon="34.9925770">
<ele>337.000000</ele>
<time>2020-07-28T01:43:34.000Z</time>
</trkpt>
<trkpt lat="31.7867780" lon="34.9927740">
<ele>340.000000</ele>
<time>2020-07-28T01:44:15.000Z</time>
</trkpt>
<trkpt lat="31.7864350" lon="34.9930040">
<ele>345.000000</ele>
<time>2020-07-28T01:45:14.000Z</time>
</trkpt>
<trkpt lat="31.7863820" lon="34.9930970">
<ele>346.000031</ele>
<time>2020-07-28T01:45:27.000Z</time>
</trkpt>
<trkpt lat="31.7863610" lon="34.9933230">
<ele>346.000031</ele>
<time>2020-07-28T01:45:46.000Z</time>
</trkpt>
<trkpt lat="31.7863150" lon="34.9938070">
<ele>347.000000</ele>
<time>2020-07-28T01:46:25.000Z</time>
</trkpt>
<trkpt lat="31.7862820" lon="34.9939920">
<ele>348.000000</ele>
<time>2020-07-28T01:46:40.000Z</time>
</trkpt>
<trkpt lat="31.7861570" lon="34.9943850">
<ele>349.000031</ele>
<time>2020-07-28T01:47:11.000Z</time>
</trkpt>
<trkpt lat="31.7859890" lon="34.9947710">
<ele>349.000031</ele>
<time>2020-07-28T01:47:43.000Z</time>
</trkpt>
<trkpt lat="31.7858770" lon="34.9949620">
<ele>349.000031</ele>
<time>2020-07-28T01:47:58.000Z</time>
</trkpt>
<trkpt lat="31.7856150" lon="34.9953240">
<ele>345.000000</ele>
<time>2020-07-28T01:48:24.000Z</time>
</trkpt>
<trkpt lat="31.7855630" lon="34.9954220">
<ele>344.000000</ele>
<time>2020-07-28T01:48:30.000Z</time>
</trkpt>
<trkpt lat="31.7854890" lon="34.9956250">
<ele>342.000000</ele>
<time>2020-07-28T01:48:42.000Z</time>
</trkpt>
<trkpt lat="31.7854510" lon="34.9958510">
<ele>339.000000</ele>
<time>2020-07-28T01:48:55.000Z</time>
</trkpt>
<trkpt lat="31.7854510" lon="34.9959660">
<ele>337.999969</ele>
<time>2020-07-28T01:49:01.000Z</time>
</trkpt>
<trkpt lat="31.7854870" lon="34.9961190">
<ele>337.000000</ele>
<time>2020-07-28T01:49:11.000Z</time>
</trkpt>
<trkpt lat="31.7855510" lon="34.9962160">
<ele>337.000000</ele>
<time>2020-07-28T01:49:18.000Z</time>
</trkpt>
<trkpt lat="31.7856799" lon="34.9962716">
<ele>337.000000</ele>
<time>2020-07-28T01:49:27.000Z</time>
</trkpt>
<trkpt lat="31.7860840" lon="34.9963100">
<ele>335.000031</ele>
<time>2020-07-28T01:49:53.000Z</time>
</trkpt>
<trkpt lat="31.7864810" lon="34.9962970">
<ele>331.000000</ele>
<time>2020-07-28T01:50:17.000Z</time>
</trkpt>
<trkpt lat="31.7867650" lon="34.9961710">
<ele>330.000000</ele>
<time>2020-07-28T01:50:38.000Z</time>
</trkpt>
<trkpt lat="31.7868430" lon="34.9961680">
<ele>330.000000</ele>
<time>2020-07-28T01:50:44.000Z</time>
</trkpt>
<trkpt lat="31.7870310" lon="34.9962620">
<ele>330.000000</ele>
<time>2020-07-28T01:51:00.000Z</time>
</trkpt>
<trkpt lat="31.7869800" lon="34.9963810">
<ele>329.000000</ele>
<time>2020-07-28T01:51:09.000Z</time>
</trkpt>
<trkpt lat="31.7870670" lon="34.9970100">
<ele>326.000000</ele>
<time>2020-07-28T01:51:48.000Z</time>
</trkpt>
<trkpt lat="31.7870830" lon="34.9973870">
<ele>323.999969</ele>
<time>2020-07-28T01:52:10.000Z</time>
</trkpt>
<trkpt lat="31.7869680" lon="34.9977100">
<ele>322.000000</ele>
<time>2020-07-28T01:52:29.000Z</time>
</trkpt>
<trkpt lat="31.7868410" lon="34.9980680">
<ele>318.000000</ele>
<time>2020-07-28T01:52:48.000Z</time>
</trkpt>
<trkpt lat="31.7865020" lon="34.9983260">
<ele>312.999969</ele>
<time>2020-07-28T01:53:10.000Z</time>
</trkpt>
<trkpt lat="31.7863840" lon="34.9983350">
<ele>312.999969</ele>
<time>2020-07-28T01:53:26.000Z</time>
</trkpt>
<trkpt lat="31.7861480" lon="34.9983170">
<ele>312.999969</ele>
<time>2020-07-28T01:53:56.000Z</time>
</trkpt>
<trkpt lat="31.7860940" lon="34.9982610">
<ele>314.000000</ele>
<time>2020-07-28T01:54:06.000Z</time>
</trkpt>
<trkpt lat="31.7859610" lon="34.9980600">
<ele>317.000000</ele>
<time>2020-07-28T01:54:34.000Z</time>
</trkpt>
<trkpt lat="31.7856190" lon="34.9973630">
<ele>326.000000</ele>
<time>2020-07-28T01:56:02.000Z</time>
</trkpt>
<trkpt lat="31.7855659" lon="34.9972438">
<ele>326.000000</ele>
<time>2020-07-28T01:56:17.000Z</time>
</trkpt>
<trkpt lat="31.7853240" lon="34.9969370">
<ele>328.000000</ele>
<time>2020-07-28T01:57:02.000Z</time>
</trkpt>
<trkpt lat="31.7851100" lon="34.9965450">
<ele>331.000000</ele>
<time>2020-07-28T01:57:50.000Z</time>
</trkpt>
<trkpt lat="31.7848300" lon="34.9959040">
<ele>334.000000</ele>
<time>2020-07-28T01:59:00.000Z</time>
</trkpt>
<trkpt lat="31.7847190" lon="34.9955920">
<ele>336.000000</ele>
<time>2020-07-28T01:59:31.000Z</time>
</trkpt>
<trkpt lat="31.7845920" lon="34.9953360">
<ele>337.999969</ele>
<time>2020-07-28T01:59:59.000Z</time>
</trkpt>
<trkpt lat="31.7844500" lon="34.9951150">
<ele>339.000000</ele>
<time>2020-07-28T02:00:24.000Z</time>
</trkpt>
<trkpt lat="31.7840480" lon="34.9945480">
<ele>342.000000</ele>
<time>2020-07-28T02:01:28.000Z</time>
</trkpt>
<trkpt lat="31.7837620" lon="34.9942280">
<ele>342.000000</ele>
<time>2020-07-28T02:02:03.000Z</time>
</trkpt>
<trkpt lat="31.7834570" lon="34.9939310">
<ele>342.000000</ele>
<time>2020-07-28T02:02:36.000Z</time>
</trkpt>
<trkpt lat="31.7832450" lon="34.9937690">
<ele>342.000000</ele>
<time>2020-07-28T02:02:57.000Z</time>
</trkpt>
<trkpt lat="31.7826990" lon="34.9934460">
<ele>341.000000</ele>
<time>2020-07-28T02:03:47.000Z</time>
</trkpt>
<trkpt lat="31.7824670" lon="34.9932480">
<ele>342.000000</ele>
<time>2020-07-28T02:04:12.000Z</time>
</trkpt>
<trkpt lat="31.7821640" lon="34.9929480">
<ele>343.000000</ele>
<time>2020-07-28T02:04:45.000Z</time>
</trkpt>
<trkpt lat="31.7819840" lon="34.9928080">
<ele>343.000000</ele>
<time>2020-07-28T02:05:01.000Z</time>
</trkpt>
<trkpt lat="31.7818110" lon="34.9927560">
<ele>342.000000</ele>
<time>2020-07-28T02:05:14.000Z</time>
</trkpt>
<trkpt lat="31.7816670" lon="34.9927550">
<ele>340.000000</ele>
<time>2020-07-28T02:05:25.000Z</time>
</trkpt>
<trkpt lat="31.7814890" lon="34.9927810">
<ele>340.000000</ele>
<time>2020-07-28T02:05:38.000Z</time>
</trkpt>
<trkpt lat="31.7812811" lon="34.9928528">
<ele>337.999969</ele>
<time>2020-07-28T02:05:52.000Z</time>
</trkpt>
<trkpt lat="31.7806580" lon="34.9931080">
<ele>334.000000</ele>
<time>2020-07-28T02:06:36.000Z</time>
</trkpt>
<trkpt lat="31.7803490" lon="34.9932940">
<ele>332.000000</ele>
<time>2020-07-28T02:07:01.000Z</time>
</trkpt>
<trkpt lat="31.7799340" lon="34.9934400">
<ele>331.000000</ele>
<time>2020-07-28T02:07:33.000Z</time>
</trkpt>
<trkpt lat="31.7794370" lon="34.9935330">
<ele>333.000000</ele>
<time>2020-07-28T02:08:13.000Z</time>
</trkpt>
<trkpt lat="31.7793380" lon="34.9935790">
<ele>332.000000</ele>
<time>2020-07-28T02:08:22.000Z</time>
</trkpt>
<trkpt lat="31.7792140" lon="34.9936650">
<ele>331.000000</ele>
<time>2020-07-28T02:08:33.000Z</time>
</trkpt>
<trkpt lat="31.7789570" lon="34.9938970">
<ele>326.000000</ele>
<time>2020-07-28T02:08:56.000Z</time>
</trkpt>
<trkpt lat="31.7788320" lon="34.9939820">
<ele>325.000000</ele>
<time>2020-07-28T02:09:05.000Z</time>
</trkpt>
<trkpt lat="31.7786960" lon="34.9940370">
<ele>323.999969</ele>
<time>2020-07-28T02:09:15.000Z</time>
</trkpt>
<trkpt lat="31.7785790" lon="34.9940360">
<ele>325.000000</ele>
<time>2020-07-28T02:09:23.000Z</time>
</trkpt>
<trkpt lat="31.7777570" lon="34.9936420">
<ele>328.000000</ele>
<time>2020-07-28T02:10:44.000Z</time>
</trkpt>
<trkpt lat="31.7776720" lon="34.9935670">
<ele>328.000000</ele>
<time>2020-07-28T02:10:53.000Z</time>
</trkpt>
<trkpt lat="31.7775450" lon="34.9934160">
<ele>328.000000</ele>
<time>2020-07-28T02:11:07.000Z</time>
</trkpt>
<trkpt lat="31.7774530" lon="34.9932850">
<ele>326.999969</ele>
<time>2020-07-28T02:11:19.000Z</time>
</trkpt>
<trkpt lat="31.7774010" lon="34.9931750">
<ele>326.999969</ele>
<time>2020-07-28T02:11:28.000Z</time>
</trkpt>
<trkpt lat="31.7774090" lon="34.9928790">
<ele>328.000000</ele>
<time>2020-07-28T02:11:48.000Z</time>
</trkpt>
<trkpt lat="31.7773850" lon="34.9924990">
<ele>330.000000</ele>
<time>2020-07-28T02:12:24.000Z</time>
</trkpt>
<trkpt lat="31.7773580" lon="34.9923760">
<ele>331.000000</ele>
<time>2020-07-28T02:12:36.000Z</time>
</trkpt>
<trkpt lat="31.7773170" lon="34.9923090">
<ele>332.000000</ele>
<time>2020-07-28T02:12:44.000Z</time>
</trkpt>
<trkpt lat="31.7769780" lon="34.9920010">
<ele>334.000000</ele>
<time>2020-07-28T02:13:34.000Z</time>
</trkpt>
<trkpt lat="31.7767970" lon="34.9917940">
<ele>336.000000</ele>
<time>2020-07-28T02:14:03.000Z</time>
</trkpt>
<trkpt lat="31.7767380" lon="34.9917460">
<ele>337.000000</ele>
<time>2020-07-28T02:14:11.000Z</time>
</trkpt>
<trkpt lat="31.7761780" lon="34.9914540">
<ele>337.999969</ele>
<time>2020-07-28T02:15:12.000Z</time>
</trkpt>
<trkpt lat="31.7759690" lon="34.9913960">
<ele>337.000000</ele>
<time>2020-07-28T02:15:28.000Z</time>
</trkpt>
<trkpt lat="31.7757720" lon="34.9913040">
<ele>336.000000</ele>
<time>2020-07-28T02:15:42.000Z</time>
</trkpt>
<trkpt lat="31.7756230" lon="34.9911850">
<ele>334.000000</ele>
<time>2020-07-28T02:15:55.000Z</time>
</trkpt>
<trkpt lat="31.7755130" lon="34.9910200">
<ele>333.000000</ele>
<time>2020-07-28T02:16:13.000Z</time>
</trkpt>
<trkpt lat="31.7754560" lon="34.9907310">
<ele>335.000031</ele>
<time>2020-07-28T02:16:39.000Z</time>
</trkpt>
<trkpt lat="31.7754020" lon="34.9902700">
<ele>337.000000</ele>
<time>2020-07-28T02:17:19.000Z</time>
</trkpt>
<trkpt lat="31.7753520" lon="34.9896370">
<ele>340.000000</ele>
<time>2020-07-28T02:18:10.000Z</time>
</trkpt>
<trkpt lat="31.7753500" lon="34.9895400">
<ele>340.000000</ele>
<time>2020-07-28T02:18:18.000Z</time>
</trkpt>
<trkpt lat="31.7752150" lon="34.9892010">
<ele>339.000000</ele>
<time>2020-07-28T02:18:44.000Z</time>
</trkpt>
<trkpt lat="31.7751150" lon="34.9889760">
<ele>337.000000</ele>
<time>2020-07-28T02:18:59.000Z</time>
</trkpt>
<trkpt lat="31.7749580" lon="34.9886910">
<ele>335.000031</ele>
<time>2020-07-28T02:19:19.000Z</time>
</trkpt>
<trkpt lat="31.7749190" lon="34.9885730">
<ele>335.000031</ele>
<time>2020-07-28T02:19:27.000Z</time>
</trkpt>
<trkpt lat="31.7748060" lon="34.9880820">
<ele>337.999969</ele>
<time>2020-07-28T02:20:32.000Z</time>
</trkpt>
<trkpt lat="31.7747900" lon="34.9878710">
<ele>341.000000</ele>
<time>2020-07-28T02:21:00.000Z</time>
</trkpt>
<trkpt lat="31.7748190" lon="34.9877280">
<ele>343.000000</ele>
<time>2020-07-28T02:21:20.000Z</time>
</trkpt>
<trkpt lat="31.7748660" lon="34.9876190">
<ele>345.000000</ele>
<time>2020-07-28T02:21:36.000Z</time>
</trkpt>
<trkpt lat="31.7749420" lon="34.9875580">
<ele>347.000000</ele>
<time>2020-07-28T02:21:48.000Z</time>
</trkpt>
<trkpt lat="31.7750320" lon="34.9875270">
<ele>349.000031</ele>
<time>2020-07-28T02:22:00.000Z</time>
</trkpt>
<trkpt lat="31.7752590" lon="34.9873390">
<ele>351.999969</ele>
<time>2020-07-28T02:22:36.000Z</time>
</trkpt>
<trkpt lat="31.7753190" lon="34.9873740">
<ele>351.000000</ele>
<time>2020-07-28T02:22:45.000Z</time>
</trkpt>
<trkpt lat="31.7753650" lon="34.9873470">
<ele>351.999969</ele>
<time>2020-07-28T02:22:52.000Z</time>
</trkpt>
<trkpt lat="31.7753820" lon="34.9872970">
<ele>353.000000</ele>
<time>2020-07-28T02:22:58.000Z</time>
</trkpt>
<trkpt lat="31.7753660" lon="34.9872440">
<ele>354.000000</ele>
<time>2020-07-28T02:23:04.000Z</time>
</trkpt>
<trkpt lat="31.7753100" lon="34.9872170">
<ele>354.000000</ele>
<time>2020-07-28T02:23:12.000Z</time>
</trkpt>
<trkpt lat="31.7752570" lon="34.9872560">
<ele>353.000000</ele>
<time>2020-07-28T02:23:20.000Z</time>
</trkpt>
<trkpt lat="31.7752490" lon="34.9872830">
<ele>353.000000</ele>
<time>2020-07-28T02:23:23.000Z</time>
</trkpt>
<trkpt lat="31.7746730" lon="34.9866900">
<ele>361.000000</ele>
<time>2020-07-28T02:25:13.000Z</time>
</trkpt>
<trkpt lat="31.7743130" lon="34.9863670">
<ele>365.000000</ele>
<time>2020-07-28T02:26:06.000Z</time>
</trkpt>
<trkpt lat="31.7739560" lon="34.9860170">
<ele>367.000000</ele>
<time>2020-07-28T02:26:57.000Z</time>
</trkpt>
<trkpt lat="31.7737580" lon="34.9857920">
<ele>367.000000</ele>
<time>2020-07-28T02:27:19.000Z</time>
</trkpt>
<trkpt lat="31.7734908" lon="34.9852971">
<ele>367.000000</ele>
<time>2020-07-28T02:28:00.000Z</time>
</trkpt>
<trkpt lat="31.7733430" lon="34.9850130">
<ele>368.000000</ele>
<time>2020-07-28T02:28:27.000Z</time>
</trkpt>
<trkpt lat="31.7733100" lon="34.9848520">
<ele>368.000000</ele>
<time>2020-07-28T02:28:40.000Z</time>
</trkpt>
<trkpt lat="31.7732920" lon="34.9846150">
<ele>368.000000</ele>
<time>2020-07-28T02:28:59.000Z</time>
</trkpt>
<trkpt lat="31.7733120" lon="34.9839580">
<ele>371.000000</ele>
<time>2020-07-28T02:29:46.000Z</time>
</trkpt>
<trkpt lat="31.7727510" lon="34.9828840">
<ele>369.000000</ele>
<time>2020-07-28T02:31:12.000Z</time>
</trkpt>
<trkpt lat="31.7723750" lon="34.9822080">
<ele>366.000000</ele>
<time>2020-07-28T02:31:59.000Z</time>
</trkpt>
<trkpt lat="31.7721490" lon="34.9819350">
<ele>362.000000</ele>
<time>2020-07-28T02:32:19.000Z</time>
</trkpt>
<trkpt lat="31.7720870" lon="34.9818300">
<ele>360.000031</ele>
<time>2020-07-28T02:32:25.000Z</time>
</trkpt>
<trkpt lat="31.7720380" lon="34.9813660">
<ele>357.000000</ele>
<time>2020-07-28T02:32:48.000Z</time>
</trkpt>
<trkpt lat="31.7719820" lon="34.9811640">
<ele>354.000000</ele>
<time>2020-07-28T02:32:58.000Z</time>
</trkpt>
<trkpt lat="31.7719210" lon="34.9810100">
<ele>351.999969</ele>
<time>2020-07-28T02:33:11.000Z</time>
</trkpt>
<trkpt lat="31.7718320" lon="34.9809410">
<ele>348.000000</ele>
<time>2020-07-28T02:33:24.000Z</time>
</trkpt>
<trkpt lat="31.7715920" lon="34.9808540">
<ele>340.000000</ele>
<time>2020-07-28T02:33:53.000Z</time>
</trkpt>
<trkpt lat="31.7715350" lon="34.9808050">
<ele>339.000000</ele>
<time>2020-07-28T02:34:01.000Z</time>
</trkpt>
<trkpt lat="31.7714980" lon="34.9807320">
<ele>337.999969</ele>
<time>2020-07-28T02:34:10.000Z</time>
</trkpt>
<trkpt lat="31.7714780" lon="34.9805220">
<ele>337.000000</ele>
<time>2020-07-28T02:34:31.000Z</time>
</trkpt>
<trkpt lat="31.7715070" lon="34.9804000">
<ele>337.999969</ele>
<time>2020-07-28T02:34:46.000Z</time>
</trkpt>
<trkpt lat="31.7715420" lon="34.9803260">
<ele>339.000000</ele>
<time>2020-07-28T02:34:56.000Z</time>
</trkpt>
<trkpt lat="31.7716170" lon="34.9802350">
<ele>341.000000</ele>
<time>2020-07-28T02:35:13.000Z</time>
</trkpt>
<trkpt lat="31.7718360" lon="34.9800850">
<ele>346.000031</ele>
<time>2020-07-28T02:35:51.000Z</time>
</trkpt>
<trkpt lat="31.7718610" lon="34.9800590">
<ele>347.000000</ele>
<time>2020-07-28T02:35:56.000Z</time>
</trkpt>
<trkpt lat="31.7718890" lon="34.9799840">
<ele>348.000000</ele>
<time>2020-07-28T02:36:06.000Z</time>
</trkpt>
<trkpt lat="31.7718780" lon="34.9799010">
<ele>349.000031</ele>
<time>2020-07-28T02:36:17.000Z</time>
</trkpt>
<trkpt lat="31.7718020" lon="34.9798130">
<ele>349.000031</ele>
<time>2020-07-28T02:36:33.000Z</time>
</trkpt>
<trkpt lat="31.7713550" lon="34.9796460">
<ele>341.000000</ele>
<time>2020-07-28T02:37:25.000Z</time>
</trkpt>
<trkpt lat="31.7712930" lon="34.9796400">
<ele>339.000000</ele>
<time>2020-07-28T02:37:32.000Z</time>
</trkpt>
<trkpt lat="31.7711540" lon="34.9795650">
<ele>337.000000</ele>
<time>2020-07-28T02:37:49.000Z</time>
</trkpt>
<trkpt lat="31.7710680" lon="34.9794890">
<ele>336.000000</ele>
<time>2020-07-28T02:38:01.000Z</time>
</trkpt>
<trkpt lat="31.7708820" lon="34.9790300">
<ele>339.000000</ele>
<time>2020-07-28T02:38:47.000Z</time>
</trkpt>
<trkpt lat="31.7705928" lon="34.9785952">
<ele>340.000000</ele>
<time>2020-07-28T02:39:36.000Z</time>
</trkpt>
<trkpt lat="31.7703840" lon="34.9783020">
<ele>337.999969</ele>
<time>2020-07-28T02:39:56.000Z</time>
</trkpt>
<trkpt lat="31.7700700" lon="34.9779490">
<ele>333.000000</ele>
<time>2020-07-28T02:40:24.000Z</time>
</trkpt>
<trkpt lat="31.7698060" lon="34.9777820">
<ele>329.000000</ele>
<time>2020-07-28T02:40:44.000Z</time>
</trkpt>
<trkpt lat="31.7695510" lon="34.9774170">
<ele>326.999969</ele>
<time>2020-07-28T02:41:10.000Z</time>
</trkpt>
<trkpt lat="31.7694260" lon="34.9771760">
<ele>325.000000</ele>
<time>2020-07-28T02:41:31.000Z</time>
</trkpt>
<trkpt lat="31.7693680" lon="34.9769800">
<ele>325.000000</ele>
<time>2020-07-28T02:41:48.000Z</time>
</trkpt>
<trkpt lat="31.7693350" lon="34.9768130">
<ele>323.999969</ele>
<time>2020-07-28T02:42:03.000Z</time>
</trkpt>
<trkpt lat="31.7693480" lon="34.9767390">
<ele>325.000000</ele>
<time>2020-07-28T02:42:10.000Z</time>
</trkpt>
<trkpt lat="31.7693590" lon="34.9766750">
<ele>325.000000</ele>
<time>2020-07-28T02:42:15.000Z</time>
</trkpt>
<trkpt lat="31.7694160" lon="34.9765740">
<ele>326.999969</ele>
<time>2020-07-28T02:42:26.000Z</time>
</trkpt>
<trkpt lat="31.7695940" lon="34.9763750">
<ele>332.000000</ele>
<time>2020-07-28T02:42:49.000Z</time>
</trkpt>
<trkpt lat="31.7696940" lon="34.9762130">
<ele>335.000031</ele>
<time>2020-07-28T02:43:04.000Z</time>
</trkpt>
<trkpt lat="31.7697260" lon="34.9760960">
<ele>336.000000</ele>
<time>2020-07-28T02:43:13.000Z</time>
</trkpt>
<trkpt lat="31.7697310" lon="34.9760480">
<ele>336.000000</ele>
<time>2020-07-28T02:43:17.000Z</time>
</trkpt>
<trkpt lat="31.7696910" lon="34.9759680">
<ele>336.000000</ele>
<time>2020-07-28T02:43:23.000Z</time>
</trkpt>
<trkpt lat="31.7696390" lon="34.9759290">
<ele>335.000031</ele>
<time>2020-07-28T02:43:29.000Z</time>
</trkpt>
<trkpt lat="31.7695100" lon="34.9759030">
<ele>333.000000</ele>
<time>2020-07-28T02:43:40.000Z</time>
</trkpt>
<trkpt lat="31.7693030" lon="34.9759650">
<ele>329.000000</ele>
<time>2020-07-28T02:43:56.000Z</time>
</trkpt>
<trkpt lat="31.7691640" lon="34.9759630">
<ele>326.999969</ele>
<time>2020-07-28T02:44:06.000Z</time>
</trkpt>
<trkpt lat="31.7690470" lon="34.9759210">
<ele>326.000000</ele>
<time>2020-07-28T02:44:14.000Z</time>
</trkpt>
<trkpt lat="31.7686990" lon="34.9757220">
<ele>325.000000</ele>
<time>2020-07-28T02:44:39.000Z</time>
</trkpt>
<trkpt lat="31.7684340" lon="34.9754860">
<ele>326.000000</ele>
<time>2020-07-28T02:45:11.000Z</time>
</trkpt>
<trkpt lat="31.7677006" lon="34.9748018">
<ele>328.000000</ele>
<time>2020-07-28T02:46:36.000Z</time>
</trkpt>
<trkpt lat="31.7675040" lon="34.9746600">
<ele>326.999969</ele>
<time>2020-07-28T02:46:54.000Z</time>
</trkpt>
<trkpt lat="31.7674370" lon="34.9745790">
<ele>326.999969</ele>
<time>2020-07-28T02:47:01.000Z</time>
</trkpt>
<trkpt lat="31.7672880" lon="34.9743250">
<ele>328.000000</ele>
<time>2020-07-28T02:47:24.000Z</time>
</trkpt>
<trkpt lat="31.7670740" lon="34.9738320">
<ele>328.000000</ele>
<time>2020-07-28T02:48:05.000Z</time>
</trkpt>
<trkpt lat="31.7669470" lon="34.9733500">
<ele>329.000000</ele>
<time>2020-07-28T02:48:36.000Z</time>
</trkpt>
<trkpt lat="31.7668780" lon="34.9730230">
<ele>323.999969</ele>
<time>2020-07-28T02:48:55.000Z</time>
</trkpt>
<trkpt lat="31.7668560" lon="34.9728200">
<ele>322.000000</ele>
<time>2020-07-28T02:49:06.000Z</time>
</trkpt>
<trkpt lat="31.7668610" lon="34.9726850">
<ele>321.000031</ele>
<time>2020-07-28T02:49:14.000Z</time>
</trkpt>
<trkpt lat="31.7669140" lon="34.9722980">
<ele>320.000000</ele>
<time>2020-07-28T02:49:41.000Z</time>
</trkpt>
<trkpt lat="31.7669970" lon="34.9720510">
<ele>320.000000</ele>
<time>2020-07-28T02:49:59.000Z</time>
</trkpt>
<trkpt lat="31.7672010" lon="34.9717890">
<ele>322.000000</ele>
<time>2020-07-28T02:50:29.000Z</time>
</trkpt>
<trkpt lat="31.7676610" lon="34.9713460">
<ele>328.000000</ele>
<time>2020-07-28T02:51:51.000Z</time>
</trkpt>
<trkpt lat="31.7679270" lon="34.9711850">
<ele>332.000000</ele>
<time>2020-07-28T02:52:25.000Z</time>
</trkpt>
<trkpt lat="31.7681110" lon="34.9710370">
<ele>333.000000</ele>
<time>2020-07-28T02:52:47.000Z</time>
</trkpt>
<trkpt lat="31.7683550" lon="34.9707880">
<ele>332.000000</ele>
<time>2020-07-28T02:53:20.000Z</time>
</trkpt>
<trkpt lat="31.7686420" lon="34.9703650">
<ele>334.000000</ele>
<time>2020-07-28T02:54:01.000Z</time>
</trkpt>
<trkpt lat="31.7689790" lon="34.9699320">
<ele>334.000000</ele>
<time>2020-07-28T02:54:43.000Z</time>
</trkpt>
<trkpt lat="31.7690340" lon="34.9698380">
<ele>334.000000</ele>
<time>2020-07-28T02:54:50.000Z</time>
</trkpt>
<trkpt lat="31.7690900" lon="34.9696960">
<ele>334.000000</ele>
<time>2020-07-28T02:54:59.000Z</time>
</trkpt>
<trkpt lat="31.7691260" lon="34.9695250">
<ele>333.000000</ele>
<time>2020-07-28T02:55:09.000Z</time>
</trkpt>
<trkpt lat="31.7691100" lon="34.9687740">
<ele>326.000000</ele>
<time>2020-07-28T02:55:52.000Z</time>
</trkpt>
<trkpt lat="31.7691300" lon="34.9679250">
<ele>322.000000</ele>
<time>2020-07-28T02:56:39.000Z</time>
</trkpt>
<trkpt lat="31.7690810" lon="34.9674290">
<ele>318.000000</ele>
<time>2020-07-28T02:57:07.000Z</time>
</trkpt>
<trkpt lat="31.7689830" lon="34.9670550">
<ele>316.000000</ele>
<time>2020-07-28T02:57:29.000Z</time>
</trkpt>
<trkpt lat="31.7688140" lon="34.9665520">
<ele>309.000000</ele>
<time>2020-07-28T02:57:58.000Z</time>
</trkpt>
<trkpt lat="31.7687960" lon="34.9664310">
<ele>309.000000</ele>
<time>2020-07-28T02:58:04.000Z</time>
</trkpt>
<trkpt lat="31.7688130" lon="34.9660400">
<ele>312.000000</ele>
<time>2020-07-28T02:58:26.000Z</time>
</trkpt>
<trkpt lat="31.7688010" lon="34.9659480">
<ele>312.000000</ele>
<time>2020-07-28T02:58:32.000Z</time>
</trkpt>
<trkpt lat="31.7687310" lon="34.9657790">
<ele>310.000000</ele>
<time>2020-07-28T02:58:43.000Z</time>
</trkpt>
<trkpt lat="31.7685260" lon="34.9655372">
<ele>306.000000</ele>
<time>2020-07-28T02:59:02.000Z</time>
</trkpt>
<trkpt lat="31.7683510" lon="34.9653090">
<ele>303.000000</ele>
<time>2020-07-28T02:59:20.000Z</time>
</trkpt>
<trkpt lat="31.7681540" lon="34.9649250">
<ele>301.000000</ele>
<time>2020-07-28T02:59:45.000Z</time>
</trkpt>
<trkpt lat="31.7681080" lon="34.9647970">
<ele>300.000000</ele>
<time>2020-07-28T02:59:52.000Z</time>
</trkpt>
<trkpt lat="31.7680850" lon="34.9645810">
<ele>299.000000</ele>
<time>2020-07-28T03:00:09.000Z</time>
</trkpt>
<trkpt lat="31.7681020" lon="34.9644960">
<ele>299.000000</ele>
<time>2020-07-28T03:00:18.000Z</time>
</trkpt>
<trkpt lat="31.7682030" lon="34.9642540">
<ele>302.000000</ele>
<time>2020-07-28T03:00:44.000Z</time>
</trkpt>
<trkpt lat="31.7685780" lon="34.9636140">
<ele>303.000000</ele>
<time>2020-07-28T03:02:04.000Z</time>
</trkpt>
<trkpt lat="31.7686770" lon="34.9634990">
<ele>303.000000</ele>
<time>2020-07-28T03:02:22.000Z</time>
</trkpt>
<trkpt lat="31.7687870" lon="34.9634380">
<ele>304.000000</ele>
<time>2020-07-28T03:02:38.000Z</time>
</trkpt>
<trkpt lat="31.7690550" lon="34.9634770">
<ele>311.000000</ele>
<time>2020-07-28T03:03:13.000Z</time>
</trkpt>
<trkpt lat="31.7693220" lon="34.9635350">
<ele>316.000000</ele>
<time>2020-07-28T03:03:52.000Z</time>
</trkpt>
<trkpt lat="31.7694230" lon="34.9635320">
<ele>317.000000</ele>
<time>2020-07-28T03:04:06.000Z</time>
</trkpt>
<trkpt lat="31.7695950" lon="34.9635040">
<ele>319.000000</ele>
<time>2020-07-28T03:04:31.000Z</time>
</trkpt>
<trkpt lat="31.7697170" lon="34.9634260">
<ele>320.000000</ele>
<time>2020-07-28T03:04:51.000Z</time>
</trkpt>
<trkpt lat="31.7700620" lon="34.9630310">
<ele>319.000000</ele>
<time>2020-07-28T03:05:41.000Z</time>
</trkpt>
<trkpt lat="31.7701710" lon="34.9628800">
<ele>319.000000</ele>
<time>2020-07-28T03:05:56.000Z</time>
</trkpt>
<trkpt lat="31.7706630" lon="34.9620650">
<ele>323.999969</ele>
<time>2020-07-28T03:07:18.000Z</time>
</trkpt>
<trkpt lat="31.7708180" lon="34.9617340">
<ele>323.999969</ele>
<time>2020-07-28T03:07:49.000Z</time>
</trkpt>
<trkpt lat="31.7709080" lon="34.9615850">
<ele>322.000000</ele>
<time>2020-07-28T03:08:02.000Z</time>
</trkpt>
<trkpt lat="31.7709860" lon="34.9615040">
<ele>320.000000</ele>
<time>2020-07-28T03:08:10.000Z</time>
</trkpt>
<trkpt lat="31.7710840" lon="34.9614500">
<ele>320.000000</ele>
<time>2020-07-28T03:08:19.000Z</time>
</trkpt>
<trkpt lat="31.7712950" lon="34.9613890">
<ele>322.000000</ele>
<time>2020-07-28T03:08:36.000Z</time>
</trkpt>
<trkpt lat="31.7714190" lon="34.9613850">
<ele>323.000000</ele>
<time>2020-07-28T03:08:46.000Z</time>
</trkpt>
<trkpt lat="31.7717070" lon="34.9614870">
<ele>330.000000</ele>
<time>2020-07-28T03:09:35.000Z</time>
</trkpt>
<trkpt lat="31.7717640" lon="34.9615260">
<ele>330.000000</ele>
<time>2020-07-28T03:09:47.000Z</time>
</trkpt>
<trkpt lat="31.7717641" lon="34.9615895">
<ele>332.000000</ele>
<time>2020-07-28T03:09:57.000Z</time>
</trkpt>
<trkpt lat="31.7718430" lon="34.9616690">
<ele>334.000000</ele>
<time>2020-07-28T03:10:15.000Z</time>
</trkpt>
<trkpt lat="31.7720740" lon="34.9625240">
<ele>345.000000</ele>
<time>2020-07-28T03:11:49.000Z</time>
</trkpt>
<trkpt lat="31.7721440" lon="34.9624400">
<ele>343.000000</ele>
<time>2020-07-28T03:11:57.000Z</time>
</trkpt>
<trkpt lat="31.7722010" lon="34.9623150">
<ele>341.000000</ele>
<time>2020-07-28T03:12:07.000Z</time>
</trkpt>
<trkpt lat="31.7722210" lon="34.9620990">
<ele>337.000000</ele>
<time>2020-07-28T03:12:23.000Z</time>
</trkpt>
<trkpt lat="31.7723350" lon="34.9617580">
<ele>331.000000</ele>
<time>2020-07-28T03:13:00.000Z</time>
</trkpt>
<trkpt lat="31.7727140" lon="34.9612950">
<ele>320.000000</ele>
<time>2020-07-28T03:14:04.000Z</time>
</trkpt>
<trkpt lat="31.7728480" lon="34.9611620">
<ele>317.000000</ele>
<time>2020-07-28T03:14:24.000Z</time>
</trkpt>
<trkpt lat="31.7732340" lon="34.9610270">
<ele>312.000000</ele>
<time>2020-07-28T03:15:09.000Z</time>
</trkpt>
<trkpt lat="31.7733580" lon="34.9609500">
<ele>310.000000</ele>
<time>2020-07-28T03:15:24.000Z</time>
</trkpt>
<trkpt lat="31.7734750" lon="34.9607910">
<ele>307.000000</ele>
<time>2020-07-28T03:15:44.000Z</time>
</trkpt>
<trkpt lat="31.7735100" lon="34.9607150">
<ele>305.000000</ele>
<time>2020-07-28T03:15:52.000Z</time>
</trkpt>
<trkpt lat="31.7735250" lon="34.9606150">
<ele>304.000000</ele>
<time>2020-07-28T03:16:01.000Z</time>
</trkpt>
<trkpt lat="31.7735030" lon="34.9605280">
<ele>302.000000</ele>
<time>2020-07-28T03:16:10.000Z</time>
</trkpt>
<trkpt lat="31.7733630" lon="34.9602960">
<ele>299.000000</ele>
<time>2020-07-28T03:16:36.000Z</time>
</trkpt>
<trkpt lat="31.7733450" lon="34.9602270">
<ele>298.000000</ele>
<time>2020-07-28T03:16:43.000Z</time>
</trkpt>
<trkpt lat="31.7733490" lon="34.9600930">
<ele>296.000000</ele>
<time>2020-07-28T03:16:55.000Z</time>
</trkpt>
<trkpt lat="31.7734100" lon="34.9598060">
<ele>292.000000</ele>
<time>2020-07-28T03:17:23.000Z</time>
</trkpt>
<trkpt lat="31.7734660" lon="34.9596630">
<ele>290.000000</ele>
<time>2020-07-28T03:17:38.000Z</time>
</trkpt>
<trkpt lat="31.7735140" lon="34.9595880">
<ele>289.000000</ele>
<time>2020-07-28T03:17:47.000Z</time>
</trkpt>
<trkpt lat="31.7736890" lon="34.9593890">
<ele>286.000000</ele>
<time>2020-07-28T03:18:14.000Z</time>
</trkpt>
<trkpt lat="31.7737560" lon="34.9592330">
<ele>283.000000</ele>
<time>2020-07-28T03:18:33.000Z</time>
</trkpt>
<trkpt lat="31.7737710" lon="34.9592750">
<ele>284.000000</ele>
<time>2020-07-28T03:18:38.000Z</time>
</trkpt>
<trkpt lat="31.7740150" lon="34.9598740">
<ele>290.000000</ele>
<time>2020-07-28T03:19:55.000Z</time>
</trkpt>
<trkpt lat="31.7740400" lon="34.9599970">
<ele>292.000000</ele>
<time>2020-07-28T03:20:10.000Z</time>
</trkpt>
<trkpt lat="31.7741000" lon="34.9601020">
<ele>293.000000</ele>
<time>2020-07-28T03:20:22.000Z</time>
</trkpt>
<trkpt lat="31.7742470" lon="34.9602230">
<ele>295.000000</ele>
<time>2020-07-28T03:20:42.000Z</time>
</trkpt>
<trkpt lat="31.7743370" lon="34.9603560">
<ele>296.000000</ele>
<time>2020-07-28T03:20:57.000Z</time>
</trkpt>
<trkpt lat="31.7744410" lon="34.9604710">
<ele>297.000000</ele>
<time>2020-07-28T03:21:13.000Z</time>
</trkpt>
<trkpt lat="31.7747390" lon="34.9607100">
<ele>295.000000</ele>
<time>2020-07-28T03:21:48.000Z</time>
</trkpt>
<trkpt lat="31.7748350" lon="34.9608360">
<ele>295.000000</ele>
<time>2020-07-28T03:21:57.000Z</time>
</trkpt>
<trkpt lat="31.7748950" lon="34.9609880">
<ele>295.000000</ele>
<time>2020-07-28T03:22:07.000Z</time>
</trkpt>
<trkpt lat="31.7749950" lon="34.9611090">
<ele>294.000000</ele>
<time>2020-07-28T03:22:16.000Z</time>
</trkpt>
<trkpt lat="31.7750910" lon="34.9611650">
<ele>293.000000</ele>
<time>2020-07-28T03:22:23.000Z</time>
</trkpt>
<trkpt lat="31.7751980" lon="34.9611770">
<ele>291.000000</ele>
<time>2020-07-28T03:22:30.000Z</time>
</trkpt>
<trkpt lat="31.7753570" lon="34.9612810">
<ele>288.000000</ele>
<time>2020-07-28T03:22:43.000Z</time>
</trkpt>
<trkpt lat="31.7755890" lon="34.9614730">
<ele>285.000000</ele>
<time>2020-07-28T03:23:02.000Z</time>
</trkpt>
<trkpt lat="31.7756200" lon="34.9615210">
<ele>285.000000</ele>
<time>2020-07-28T03:23:05.000Z</time>
</trkpt>
<trkpt lat="31.7756470" lon="34.9616290">
<ele>285.000000</ele>
<time>2020-07-28T03:23:12.000Z</time>
</trkpt>
<trkpt lat="31.7756440" lon="34.9619750">
<ele>285.000000</ele>
<time>2020-07-28T03:23:32.000Z</time>
</trkpt>
<trkpt lat="31.7756160" lon="34.9621870">
<ele>285.000000</ele>
<time>2020-07-28T03:23:48.000Z</time>
</trkpt>
<trkpt lat="31.7756449" lon="34.9625288">
<ele>285.000000</ele>
<time>2020-07-28T03:24:14.000Z</time>
</trkpt>
<trkpt lat="31.7756520" lon="34.9626170">
<ele>285.000000</ele>
<time>2020-07-28T03:24:20.000Z</time>
</trkpt>
<trkpt lat="31.7756150" lon="34.9628280">
<ele>286.000000</ele>
<time>2020-07-28T03:24:36.000Z</time>
</trkpt>
<trkpt lat="31.7755340" lon="34.9630690">
<ele>287.000000</ele>
<time>2020-07-28T03:25:00.000Z</time>
</trkpt>
<trkpt lat="31.7754830" lon="34.9633210">
<ele>287.000000</ele>
<time>2020-07-28T03:25:26.000Z</time>
</trkpt>
<trkpt lat="31.7755240" lon="34.9636190">
<ele>289.000000</ele>
<time>2020-07-28T03:25:55.000Z</time>
</trkpt>
<trkpt lat="31.7755650" lon="34.9637840">
<ele>291.000000</ele>
<time>2020-07-28T03:26:12.000Z</time>
</trkpt>
<trkpt lat="31.7753510" lon="34.9639890">
<ele>293.000000</ele>
<time>2020-07-28T03:26:48.000Z</time>
</trkpt>
<trkpt lat="31.7750860" lon="34.9641240">
<ele>295.000000</ele>
<time>2020-07-28T03:27:25.000Z</time>
</trkpt>
<trkpt lat="31.7749320" lon="34.9642350">
<ele>296.000000</ele>
<time>2020-07-28T03:27:49.000Z</time>
</trkpt>
<trkpt lat="31.7745180" lon="34.9644740">
<ele>301.000000</ele>
<time>2020-07-28T03:28:43.000Z</time>
</trkpt>
<trkpt lat="31.7742420" lon="34.9646070">
<ele>303.000000</ele>
<time>2020-07-28T03:29:17.000Z</time>
</trkpt>
<trkpt lat="31.7741770" lon="34.9647110">
<ele>303.000000</ele>
<time>2020-07-28T03:29:30.000Z</time>
</trkpt>
<trkpt lat="31.7738550" lon="34.9649890">
<ele>303.000000</ele>
<time>2020-07-28T03:30:05.000Z</time>
</trkpt>
<trkpt lat="31.7737280" lon="34.9651410">
<ele>304.000000</ele>
<time>2020-07-28T03:30:21.000Z</time>
</trkpt>
<trkpt lat="31.7736690" lon="34.9651890">
<ele>304.000000</ele>
<time>2020-07-28T03:30:27.000Z</time>
</trkpt>
<trkpt lat="31.7735660" lon="34.9651860">
<ele>304.000000</ele>
<time>2020-07-28T03:30:36.000Z</time>
</trkpt>
<trkpt lat="31.7733980" lon="34.9651050">
<ele>304.000000</ele>
<time>2020-07-28T03:30:59.000Z</time>
</trkpt>
<trkpt lat="31.7732230" lon="34.9649550">
<ele>306.000000</ele>
<time>2020-07-28T03:31:32.000Z</time>
</trkpt>
<trkpt lat="31.7730090" lon="34.9649660">
<ele>309.000000</ele>
<time>2020-07-28T03:32:04.000Z</time>
</trkpt>
<trkpt lat="31.7728920" lon="34.9649350">
<ele>311.000000</ele>
<time>2020-07-28T03:32:22.000Z</time>
</trkpt>
<trkpt lat="31.7724220" lon="34.9647720">
<ele>320.000000</ele>
<time>2020-07-28T03:33:41.000Z</time>
</trkpt>
<trkpt lat="31.7720767" lon="34.9645495">
<ele>325.000000</ele>
<time>2020-07-28T03:34:46.000Z</time>
</trkpt>
<trkpt lat="31.7712090" lon="34.9641130">
<ele>330.000000</ele>
<time>2020-07-28T03:36:25.000Z</time>
</trkpt>
<trkpt lat="31.7705560" lon="34.9640680">
<ele>330.000000</ele>
<time>2020-07-28T03:37:17.000Z</time>
</trkpt>
<trkpt lat="31.7702010" lon="34.9641640">
<ele>329.000000</ele>
<time>2020-07-28T03:37:54.000Z</time>
</trkpt>
<trkpt lat="31.7698220" lon="34.9644300">
<ele>332.000000</ele>
<time>2020-07-28T03:38:42.000Z</time>
</trkpt>
<trkpt lat="31.7698430" lon="34.9645410">
<ele>333.000000</ele>
<time>2020-07-28T03:38:52.000Z</time>
</trkpt>
<trkpt lat="31.7699190" lon="34.9646500">
<ele>334.000000</ele>
<time>2020-07-28T03:39:05.000Z</time>
</trkpt>
<trkpt lat="31.7703400" lon="34.9648850">
<ele>337.000000</ele>
<time>2020-07-28T03:39:56.000Z</time>
</trkpt>
<trkpt lat="31.7704950" lon="34.9649470">
<ele>337.000000</ele>
<time>2020-07-28T03:40:13.000Z</time>
</trkpt>
<trkpt lat="31.7708310" lon="34.9650810">
<ele>337.999969</ele>
<time>2020-07-28T03:40:48.000Z</time>
</trkpt>
<trkpt lat="31.7710550" lon="34.9652250">
<ele>337.999969</ele>
<time>2020-07-28T03:41:12.000Z</time>
</trkpt>
<trkpt lat="31.7711980" lon="34.9653800">
<ele>339.000000</ele>
<time>2020-07-28T03:41:30.000Z</time>
</trkpt>
<trkpt lat="31.7712520" lon="34.9654740">
<ele>340.000000</ele>
<time>2020-07-28T03:41:41.000Z</time>
</trkpt>
<trkpt lat="31.7713070" lon="34.9656140">
<ele>341.000000</ele>
<time>2020-07-28T03:41:59.000Z</time>
</trkpt>
<trkpt lat="31.7713240" lon="34.9657470">
<ele>343.000000</ele>
<time>2020-07-28T03:42:14.000Z</time>
</trkpt>
<trkpt lat="31.7713210" lon="34.9661280">
<ele>346.000031</ele>
<time>2020-07-28T03:42:58.000Z</time>
</trkpt>
<trkpt lat="31.7713000" lon="34.9662700">
<ele>347.000000</ele>
<time>2020-07-28T03:43:15.000Z</time>
</trkpt>
<trkpt lat="31.7708760" lon="34.9676220">
<ele>358.000000</ele>
<time>2020-07-28T03:45:53.000Z</time>
</trkpt>
<trkpt lat="31.7706130" lon="34.9683840">
<ele>359.000000</ele>
<time>2020-07-28T03:47:02.000Z</time>
</trkpt>
<trkpt lat="31.7703200" lon="34.9693860">
<ele>361.000000</ele>
<time>2020-07-28T03:48:24.000Z</time>
</trkpt>
<trkpt lat="31.7702970" lon="34.9695270">
<ele>362.000000</ele>
<time>2020-07-28T03:48:37.000Z</time>
</trkpt>
<trkpt lat="31.7703050" lon="34.9701180">
<ele>365.000000</ele>
<time>2020-07-28T03:49:36.000Z</time>
</trkpt>
<trkpt lat="31.7703580" lon="34.9705640">
<ele>369.000000</ele>
<time>2020-07-28T03:50:31.000Z</time>
</trkpt>
<trkpt lat="31.7704710" lon="34.9709950">
<ele>374.000031</ele>
<time>2020-07-28T03:51:19.000Z</time>
</trkpt>
<trkpt lat="31.7705410" lon="34.9710590">
<ele>374.000031</ele>
<time>2020-07-28T03:51:25.000Z</time>
</trkpt>
<trkpt lat="31.7706020" lon="34.9710900">
<ele>374.000031</ele>
<time>2020-07-28T03:51:30.000Z</time>
</trkpt>
<trkpt lat="31.7706770" lon="34.9710790">
<ele>374.000031</ele>
<time>2020-07-28T03:51:35.000Z</time>
</trkpt>
<trkpt lat="31.7707310" lon="34.9710450">
<ele>372.000000</ele>
<time>2020-07-28T03:51:40.000Z</time>
</trkpt>
<trkpt lat="31.7711010" lon="34.9707170">
<ele>368.000000</ele>
<time>2020-07-28T03:52:13.000Z</time>
</trkpt>
<trkpt lat="31.7714130" lon="34.9704640">
<ele>367.000000</ele>
<time>2020-07-28T03:52:46.000Z</time>
</trkpt>
<trkpt lat="31.7715240" lon="34.9704460">
<ele>367.000000</ele>
<time>2020-07-28T03:52:56.000Z</time>
</trkpt>
<trkpt lat="31.7715940" lon="34.9704570">
<ele>368.000000</ele>
<time>2020-07-28T03:53:02.000Z</time>
</trkpt>
<trkpt lat="31.7716640" lon="34.9704920">
<ele>369.000000</ele>
<time>2020-07-28T03:53:09.000Z</time>
</trkpt>
<trkpt lat="31.7717642" lon="34.9706081">
<ele>369.000000</ele>
<time>2020-07-28T03:53:21.000Z</time>
</trkpt>
<trkpt lat="31.7718030" lon="34.9706730">
<ele>369.000000</ele>
<time>2020-07-28T03:53:29.000Z</time>
</trkpt>
<trkpt lat="31.7719810" lon="34.9712680">
<ele>373.000000</ele>
<time>2020-07-28T03:54:31.000Z</time>
</trkpt>
<trkpt lat="31.7720610" lon="34.9714710">
<ele>374.000031</ele>
<time>2020-07-28T03:54:53.000Z</time>
</trkpt>
<trkpt lat="31.7721430" lon="34.9716180">
<ele>374.000031</ele>
<time>2020-07-28T03:55:04.000Z</time>
</trkpt>
<trkpt lat="31.7725100" lon="34.9720870">
<ele>371.000000</ele>
<time>2020-07-28T03:55:43.000Z</time>
</trkpt>
<trkpt lat="31.7725840" lon="34.9722260">
<ele>371.000000</ele>
<time>2020-07-28T03:55:55.000Z</time>
</trkpt>
<trkpt lat="31.7726330" lon="34.9724440">
<ele>372.000000</ele>
<time>2020-07-28T03:56:18.000Z</time>
</trkpt>
<trkpt lat="31.7726080" lon="34.9725950">
<ele>373.000000</ele>
<time>2020-07-28T03:56:34.000Z</time>
</trkpt>
<trkpt lat="31.7725480" lon="34.9727640">
<ele>374.000031</ele>
<time>2020-07-28T03:56:53.000Z</time>
</trkpt>
<trkpt lat="31.7724290" lon="34.9729920">
<ele>376.000000</ele>
<time>2020-07-28T03:57:21.000Z</time>
</trkpt>
<trkpt lat="31.7722020" lon="34.9732520">
<ele>380.000000</ele>
<time>2020-07-28T03:58:10.000Z</time>
</trkpt>
<trkpt lat="31.7718070" lon="34.9736170">
<ele>387.999969</ele>
<time>2020-07-28T03:59:32.000Z</time>
</trkpt>
<trkpt lat="31.7716910" lon="34.9737620">
<ele>390.000000</ele>
<time>2020-07-28T03:59:52.000Z</time>
</trkpt>
<trkpt lat="31.7716100" lon="34.9739190">
<ele>390.000000</ele>
<time>2020-07-28T04:00:03.000Z</time>
</trkpt>
<trkpt lat="31.7715630" lon="34.9740600">
<ele>389.000000</ele>
<time>2020-07-28T04:00:13.000Z</time>
</trkpt>
<trkpt lat="31.7715400" lon="34.9742000">
<ele>387.999969</ele>
<time>2020-07-28T04:00:22.000Z</time>
</trkpt>
<trkpt lat="31.7715420" lon="34.9744860">
<ele>387.000000</ele>
<time>2020-07-28T04:00:41.000Z</time>
</trkpt>
<trkpt lat="31.7715660" lon="34.9746140">
<ele>387.000000</ele>
<time>2020-07-28T04:00:49.000Z</time>
</trkpt>
<trkpt lat="31.7716140" lon="34.9747320">
<ele>387.000000</ele>
<time>2020-07-28T04:00:57.000Z</time>
</trkpt>
<trkpt lat="31.7717520" lon="34.9749710">
<ele>387.000000</ele>
<time>2020-07-28T04:01:16.000Z</time>
</trkpt>
<trkpt lat="31.7721370" lon="34.9754310">
<ele>385.000031</ele>
<time>2020-07-28T04:02:00.000Z</time>
</trkpt>
<trkpt lat="31.7722920" lon="34.9756170">
<ele>385.000031</ele>
<time>2020-07-28T04:02:21.000Z</time>
</trkpt>
<trkpt lat="31.7727460" lon="34.9762700">
<ele>385.000031</ele>
<time>2020-07-28T04:03:22.000Z</time>
</trkpt>
<trkpt lat="31.7729370" lon="34.9765810">
<ele>384.000000</ele>
<time>2020-07-28T04:03:45.000Z</time>
</trkpt>
<trkpt lat="31.7729870" lon="34.9767120">
<ele>383.000000</ele>
<time>2020-07-28T04:03:53.000Z</time>
</trkpt>
<trkpt lat="31.7730360" lon="34.9770140">
<ele>382.000000</ele>
<time>2020-07-28T04:04:13.000Z</time>
</trkpt>
<trkpt lat="31.7730010" lon="34.9772400">
<ele>382.000000</ele>
<time>2020-07-28T04:04:28.000Z</time>
</trkpt>
<trkpt lat="31.7730020" lon="34.9774730">
<ele>382.000000</ele>
<time>2020-07-28T04:04:44.000Z</time>
</trkpt>
<trkpt lat="31.7729660" lon="34.9777300">
<ele>382.000000</ele>
<time>2020-07-28T04:05:01.000Z</time>
</trkpt>
<trkpt lat="31.7729730" lon="34.9779070">
<ele>381.000000</ele>
<time>2020-07-28T04:05:11.000Z</time>
</trkpt>
<trkpt lat="31.7730569" lon="34.9783626">
<ele>378.000000</ele>
<time>2020-07-28T04:05:38.000Z</time>
</trkpt>
<trkpt lat="31.7731220" lon="34.9786080">
<ele>376.999969</ele>
<time>2020-07-28T04:05:53.000Z</time>
</trkpt>
<trkpt lat="31.7732070" lon="34.9787660">
<ele>376.999969</ele>
<time>2020-07-28T04:06:10.000Z</time>
</trkpt>
<trkpt lat="31.7733800" lon="34.9790800">
<ele>378.000000</ele>
<time>2020-07-28T04:06:51.000Z</time>
</trkpt>
<trkpt lat="31.7734980" lon="34.9791290">
<ele>380.000000</ele>
<time>2020-07-28T04:07:07.000Z</time>
</trkpt>
<trkpt lat="31.7737440" lon="34.9791200">
<ele>384.000000</ele>
<time>2020-07-28T04:07:39.000Z</time>
</trkpt>
<trkpt lat="31.7738820" lon="34.9790500">
<ele>385.000031</ele>
<time>2020-07-28T04:07:52.000Z</time>
</trkpt>
<trkpt lat="31.7740150" lon="34.9789040">
<ele>386.000000</ele>
<time>2020-07-28T04:08:06.000Z</time>
</trkpt>
<trkpt lat="31.7742060" lon="34.9784370">
<ele>383.000000</ele>
<time>2020-07-28T04:08:40.000Z</time>
</trkpt>
<trkpt lat="31.7742820" lon="34.9783690">
<ele>383.000000</ele>
<time>2020-07-28T04:08:50.000Z</time>
</trkpt>
<trkpt lat="31.7744500" lon="34.9782180">
<ele>383.000000</ele>
<time>2020-07-28T04:09:17.000Z</time>
</trkpt>
<trkpt lat="31.7748050" lon="34.9781910">
<ele>387.000000</ele>
<time>2020-07-28T04:10:03.000Z</time>
</trkpt>
<trkpt lat="31.7755030" lon="34.9783680">
<ele>395.000000</ele>
<time>2020-07-28T04:11:36.000Z</time>
</trkpt>
<trkpt lat="31.7758100" lon="34.9784160">
<ele>397.000000</ele>
<time>2020-07-28T04:12:15.000Z</time>
</trkpt>
<trkpt lat="31.7759430" lon="34.9782490">
<ele>396.000000</ele>
<time>2020-07-28T04:12:28.000Z</time>
</trkpt>
<trkpt lat="31.7762517" lon="34.9774948">
<ele>392.000000</ele>
<time>2020-07-28T04:13:18.000Z</time>
</trkpt>
<trkpt lat="31.7763450" lon="34.9773270">
<ele>392.000000</ele>
<time>2020-07-28T04:13:32.000Z</time>
</trkpt>
<trkpt lat="31.7764270" lon="34.9772000">
<ele>393.000000</ele>
<time>2020-07-28T04:13:43.000Z</time>
</trkpt>
<trkpt lat="31.7759250" lon="34.9766580">
<ele>392.000000</ele>
<time>2020-07-28T04:14:34.000Z</time>
</trkpt>
<trkpt lat="31.7757910" lon="34.9764910">
<ele>390.000000</ele>
<time>2020-07-28T04:14:47.000Z</time>
</trkpt>
<trkpt lat="31.7756480" lon="34.9762660">
<ele>387.000000</ele>
<time>2020-07-28T04:15:03.000Z</time>
</trkpt>
<trkpt lat="31.7755770" lon="34.9760980">
<ele>386.000000</ele>
<time>2020-07-28T04:15:14.000Z</time>
</trkpt>
<trkpt lat="31.7755430" lon="34.9759700">
<ele>386.000000</ele>
<time>2020-07-28T04:15:22.000Z</time>
</trkpt>
<trkpt lat="31.7755280" lon="34.9758360">
<ele>385.000031</ele>
<time>2020-07-28T04:15:31.000Z</time>
</trkpt>
<trkpt lat="31.7755480" lon="34.9756620">
<ele>384.000000</ele>
<time>2020-07-28T04:15:41.000Z</time>
</trkpt>
<trkpt lat="31.7756000" lon="34.9754870">
<ele>384.000000</ele>
<time>2020-07-28T04:15:52.000Z</time>
</trkpt>
<trkpt lat="31.7758420" lon="34.9748730">
<ele>384.000000</ele>
<time>2020-07-28T04:16:39.000Z</time>
</trkpt>
<trkpt lat="31.7759380" lon="34.9746840">
<ele>385.000031</ele>
<time>2020-07-28T04:16:55.000Z</time>
</trkpt>
<trkpt lat="31.7759040" lon="34.9744810">
<ele>384.000000</ele>
<time>2020-07-28T04:17:11.000Z</time>
</trkpt>
<trkpt lat="31.7758380" lon="34.9743220">
<ele>383.000000</ele>
<time>2020-07-28T04:17:22.000Z</time>
</trkpt>
<trkpt lat="31.7756020" lon="34.9740440">
<ele>380.000000</ele>
<time>2020-07-28T04:17:45.000Z</time>
</trkpt>
<trkpt lat="31.7753620" lon="34.9737990">
<ele>379.000000</ele>
<time>2020-07-28T04:18:07.000Z</time>
</trkpt>
<trkpt lat="31.7752940" lon="34.9736910">
<ele>378.000000</ele>
<time>2020-07-28T04:18:15.000Z</time>
</trkpt>
<trkpt lat="31.7752400" lon="34.9735700">
<ele>378.000000</ele>
<time>2020-07-28T04:18:24.000Z</time>
</trkpt>
<trkpt lat="31.7752000" lon="34.9734010">
<ele>379.000000</ele>
<time>2020-07-28T04:18:35.000Z</time>
</trkpt>
<trkpt lat="31.7751940" lon="34.9732550">
<ele>379.000000</ele>
<time>2020-07-28T04:18:45.000Z</time>
</trkpt>
<trkpt lat="31.7752110" lon="34.9731110">
<ele>378.000000</ele>
<time>2020-07-28T04:18:55.000Z</time>
</trkpt>
<trkpt lat="31.7754280" lon="34.9724660">
<ele>379.000000</ele>
<time>2020-07-28T04:19:44.000Z</time>
</trkpt>
<trkpt lat="31.7754630" lon="34.9722850">
<ele>380.000000</ele>
<time>2020-07-28T04:19:57.000Z</time>
</trkpt>
<trkpt lat="31.7754760" lon="34.9721180">
<ele>379.000000</ele>
<time>2020-07-28T04:20:10.000Z</time>
</trkpt>
<trkpt lat="31.7754916" lon="34.9716176">
<ele>378.000000</ele>
<time>2020-07-28T04:20:42.000Z</time>
</trkpt>
<trkpt lat="31.7754700" lon="34.9712930">
<ele>375.000000</ele>
<time>2020-07-28T04:21:01.000Z</time>
</trkpt>
<trkpt lat="31.7755230" lon="34.9710320">
<ele>374.000031</ele>
<time>2020-07-28T04:21:16.000Z</time>
</trkpt>
<trkpt lat="31.7755840" lon="34.9709200">
<ele>374.000031</ele>
<time>2020-07-28T04:21:25.000Z</time>
</trkpt>
<trkpt lat="31.7756440" lon="34.9708610">
<ele>374.000031</ele>
<time>2020-07-28T04:21:32.000Z</time>
</trkpt>
<trkpt lat="31.7757910" lon="34.9707980">
<ele>375.000000</ele>
<time>2020-07-28T04:21:46.000Z</time>
</trkpt>
<trkpt lat="31.7761780" lon="34.9707430">
<ele>375.000000</ele>
<time>2020-07-28T04:22:20.000Z</time>
</trkpt>
<trkpt lat="31.7763990" lon="34.9706910">
<ele>375.000000</ele>
<time>2020-07-28T04:22:38.000Z</time>
</trkpt>
<trkpt lat="31.7767120" lon="34.9705890">
<ele>374.000031</ele>
<time>2020-07-28T04:23:02.000Z</time>
</trkpt>
<trkpt lat="31.7767980" lon="34.9705370">
<ele>374.000031</ele>
<time>2020-07-28T04:23:09.000Z</time>
</trkpt>
<trkpt lat="31.7769130" lon="34.9704080">
<ele>373.000000</ele>
<time>2020-07-28T04:23:20.000Z</time>
</trkpt>
<trkpt lat="31.7769730" lon="34.9702540">
<ele>372.000000</ele>
<time>2020-07-28T04:23:31.000Z</time>
</trkpt>
<trkpt lat="31.7769850" lon="34.9700500">
<ele>371.000000</ele>
<time>2020-07-28T04:23:44.000Z</time>
</trkpt>
<trkpt lat="31.7768780" lon="34.9691180">
<ele>370.000000</ele>
<time>2020-07-28T04:24:51.000Z</time>
</trkpt>
<trkpt lat="31.7768610" lon="34.9688140">
<ele>372.000000</ele>
<time>2020-07-28T04:25:21.000Z</time>
</trkpt>
<trkpt lat="31.7768070" lon="34.9685860">
<ele>374.000031</ele>
<time>2020-07-28T04:25:45.000Z</time>
</trkpt>
<trkpt lat="31.7766820" lon="34.9683220">
<ele>375.000000</ele>
<time>2020-07-28T04:26:09.000Z</time>
</trkpt>
<trkpt lat="31.7765750" lon="34.9681690">
<ele>373.000000</ele>
<time>2020-07-28T04:26:20.000Z</time>
</trkpt>
<trkpt lat="31.7762570" lon="34.9677920">
<ele>369.000000</ele>
<time>2020-07-28T04:26:49.000Z</time>
</trkpt>
<trkpt lat="31.7759470" lon="34.9674780">
<ele>367.000000</ele>
<time>2020-07-28T04:27:14.000Z</time>
</trkpt>
<trkpt lat="31.7758780" lon="34.9673850">
<ele>365.000000</ele>
<time>2020-07-28T04:27:21.000Z</time>
</trkpt>
<trkpt lat="31.7758160" lon="34.9672470">
<ele>362.999969</ele>
<time>2020-07-28T04:27:29.000Z</time>
</trkpt>
<trkpt lat="31.7758010" lon="34.9671460">
<ele>362.000000</ele>
<time>2020-07-28T04:27:35.000Z</time>
</trkpt>
<trkpt lat="31.7758100" lon="34.9670660">
<ele>361.000000</ele>
<time>2020-07-28T04:27:39.000Z</time>
</trkpt>
<trkpt lat="31.7758580" lon="34.9669570">
<ele>361.000000</ele>
<time>2020-07-28T04:27:46.000Z</time>
</trkpt>
<trkpt lat="31.7759100" lon="34.9668850">
<ele>360.000031</ele>
<time>2020-07-28T04:27:52.000Z</time>
</trkpt>
<trkpt lat="31.7760020" lon="34.9668040">
<ele>359.000000</ele>
<time>2020-07-28T04:28:01.000Z</time>
</trkpt>
<trkpt lat="31.7760830" lon="34.9667660">
<ele>358.000000</ele>
<time>2020-07-28T04:28:07.000Z</time>
</trkpt>
<trkpt lat="31.7762120" lon="34.9667600">
<ele>358.000000</ele>
<time>2020-07-28T04:28:17.000Z</time>
</trkpt>
<trkpt lat="31.7767150" lon="34.9668610">
<ele>360.000031</ele>
<time>2020-07-28T04:28:55.000Z</time>
</trkpt>
<trkpt lat="31.7770230" lon="34.9668900">
<ele>360.000031</ele>
<time>2020-07-28T04:29:19.000Z</time>
</trkpt>
<trkpt lat="31.7771200" lon="34.9668780">
<ele>360.000031</ele>
<time>2020-07-28T04:29:26.000Z</time>
</trkpt>
<trkpt lat="31.7774720" lon="34.9667730">
<ele>357.000000</ele>
<time>2020-07-28T04:29:53.000Z</time>
</trkpt>
<trkpt lat="31.7777813" lon="34.9666419">
<ele>353.000000</ele>
<time>2020-07-28T04:30:14.000Z</time>
</trkpt>
<trkpt lat="31.7779670" lon="34.9665330">
<ele>351.000000</ele>
<time>2020-07-28T04:30:28.000Z</time>
</trkpt>
<trkpt lat="31.7781470" lon="34.9664980">
<ele>351.000000</ele>
<time>2020-07-28T04:30:40.000Z</time>
</trkpt>
<trkpt lat="31.7782190" lon="34.9662390">
<ele>350.000000</ele>
<time>2020-07-28T04:31:00.000Z</time>
</trkpt>
<trkpt lat="31.7782720" lon="34.9657140">
<ele>350.000000</ele>
<time>2020-07-28T04:31:39.000Z</time>
</trkpt>
<trkpt lat="31.7784720" lon="34.9648510">
<ele>353.000000</ele>
<time>2020-07-28T04:32:41.000Z</time>
</trkpt>
<trkpt lat="31.7784910" lon="34.9644040">
<ele>350.000000</ele>
<time>2020-07-28T04:33:08.000Z</time>
</trkpt>
<trkpt lat="31.7784510" lon="34.9642400">
<ele>349.000031</ele>
<time>2020-07-28T04:33:18.000Z</time>
</trkpt>
<trkpt lat="31.7784590" lon="34.9641590">
<ele>349.000031</ele>
<time>2020-07-28T04:33:23.000Z</time>
</trkpt>
<trkpt lat="31.7785510" lon="34.9638690">
<ele>347.000000</ele>
<time>2020-07-28T04:33:40.000Z</time>
</trkpt>
<trkpt lat="31.7785800" lon="34.9637170">
<ele>346.000031</ele>
<time>2020-07-28T04:33:48.000Z</time>
</trkpt>
<trkpt lat="31.7785580" lon="34.9633880">
<ele>343.000000</ele>
<time>2020-07-28T04:34:10.000Z</time>
</trkpt>
<trkpt lat="31.7785540" lon="34.9633260">
<ele>343.000000</ele>
<time>2020-07-28T04:34:14.000Z</time>
</trkpt>
<trkpt lat="31.7785700" lon="34.9632570">
<ele>342.000000</ele>
<time>2020-07-28T04:34:19.000Z</time>
</trkpt>
<trkpt lat="31.7786260" lon="34.9631670">
<ele>341.000000</ele>
<time>2020-07-28T04:34:26.000Z</time>
</trkpt>
<trkpt lat="31.7789510" lon="34.9629930">
<ele>345.000000</ele>
<time>2020-07-28T04:34:55.000Z</time>
</trkpt>
<trkpt lat="31.7790160" lon="34.9629390">
<ele>346.000031</ele>
<time>2020-07-28T04:35:02.000Z</time>
</trkpt>
<trkpt lat="31.7790990" lon="34.9628320">
<ele>348.000000</ele>
<time>2020-07-28T04:35:14.000Z</time>
</trkpt>
<trkpt lat="31.7792250" lon="34.9625970">
<ele>349.000031</ele>
<time>2020-07-28T04:35:36.000Z</time>
</trkpt>
<trkpt lat="31.7792710" lon="34.9624740">
<ele>348.000000</ele>
<time>2020-07-28T04:35:47.000Z</time>
</trkpt>
<trkpt lat="31.7793950" lon="34.9618920">
<ele>346.000031</ele>
<time>2020-07-28T04:36:33.000Z</time>
</trkpt>
<trkpt lat="31.7794660" lon="34.9617540">
<ele>346.000031</ele>
<time>2020-07-28T04:36:45.000Z</time>
</trkpt>
<trkpt lat="31.7795790" lon="34.9616770">
<ele>346.000031</ele>
<time>2020-07-28T04:36:56.000Z</time>
</trkpt>
<trkpt lat="31.7798300" lon="34.9615920">
<ele>348.000000</ele>
<time>2020-07-28T04:37:19.000Z</time>
</trkpt>
<trkpt lat="31.7799550" lon="34.9615010">
<ele>349.000031</ele>
<time>2020-07-28T04:37:29.000Z</time>
</trkpt>
<trkpt lat="31.7802230" lon="34.9612110">
<ele>345.000000</ele>
<time>2020-07-28T04:37:54.000Z</time>
</trkpt>
<trkpt lat="31.7803120" lon="34.9610700">
<ele>344.000000</ele>
<time>2020-07-28T04:38:04.000Z</time>
</trkpt>
<trkpt lat="31.7805500" lon="34.9605260">
<ele>340.000000</ele>
<time>2020-07-28T04:38:38.000Z</time>
</trkpt>
<trkpt lat="31.7805870" lon="34.9603670">
<ele>339.000000</ele>
<time>2020-07-28T04:38:47.000Z</time>
</trkpt>
<trkpt lat="31.7806010" lon="34.9601480">
<ele>337.000000</ele>
<time>2020-07-28T04:39:00.000Z</time>
</trkpt>
<trkpt lat="31.7806940" lon="34.9598930">
<ele>336.000000</ele>
<time>2020-07-28T04:39:16.000Z</time>
</trkpt>
<trkpt lat="31.7807360" lon="34.9596620">
<ele>335.000031</ele>
<time>2020-07-28T04:39:30.000Z</time>
</trkpt>
<trkpt lat="31.7808470" lon="34.9594350">
<ele>335.000031</ele>
<time>2020-07-28T04:39:46.000Z</time>
</trkpt>
<trkpt lat="31.7809320" lon="34.9592180">
<ele>333.000000</ele>
<time>2020-07-28T04:40:00.000Z</time>
</trkpt>
<trkpt lat="31.7810200" lon="34.9590620">
<ele>331.000000</ele>
<time>2020-07-28T04:40:11.000Z</time>
</trkpt>
<trkpt lat="31.7813030" lon="34.9586520">
<ele>328.000000</ele>
<time>2020-07-28T04:40:41.000Z</time>
</trkpt>
<trkpt lat="31.7814320" lon="34.9584970">
<ele>328.000000</ele>
<time>2020-07-28T04:40:54.000Z</time>
</trkpt>
<trkpt lat="31.7815600" lon="34.9584120">
<ele>328.000000</ele>
<time>2020-07-28T04:41:04.000Z</time>
</trkpt>
<trkpt lat="31.7818340" lon="34.9583480">
<ele>328.000000</ele>
<time>2020-07-28T04:41:24.000Z</time>
</trkpt>
<trkpt lat="31.7819469" lon="34.9583055">
<ele>326.999969</ele>
<time>2020-07-28T04:41:32.000Z</time>
</trkpt>
<trkpt lat="31.7821110" lon="34.9582260">
<ele>325.000000</ele>
<time>2020-07-28T04:41:45.000Z</time>
</trkpt>
<trkpt lat="31.7822390" lon="34.9581140">
<ele>323.000000</ele>
<time>2020-07-28T04:41:56.000Z</time>
</trkpt>
<trkpt lat="31.7823630" lon="34.9580410">
<ele>322.000000</ele>
<time>2020-07-28T04:42:04.000Z</time>
</trkpt>
<trkpt lat="31.7825550" lon="34.9579670">
<ele>321.000031</ele>
<time>2020-07-28T04:42:15.000Z</time>
</trkpt>
<trkpt lat="31.7826650" lon="34.9579530">
<ele>319.000000</ele>
<time>2020-07-28T04:42:21.000Z</time>
</trkpt>
<trkpt lat="31.7829230" lon="34.9579700">
<ele>316.000000</ele>
<time>2020-07-28T04:42:36.000Z</time>
</trkpt>
<trkpt lat="31.7830600" lon="34.9579360">
<ele>314.000000</ele>
<time>2020-07-28T04:42:44.000Z</time>
</trkpt>
<trkpt lat="31.7832150" lon="34.9578460">
<ele>312.000000</ele>
<time>2020-07-28T04:42:55.000Z</time>
</trkpt>
<trkpt lat="31.7833130" lon="34.9577310">
<ele>311.000000</ele>
<time>2020-07-28T04:43:04.000Z</time>
</trkpt>
<trkpt lat="31.7833680" lon="34.9575030">
<ele>312.000000</ele>
<time>2020-07-28T04:43:18.000Z</time>
</trkpt>
<trkpt lat="31.7834280" lon="34.9574090">
<ele>310.000000</ele>
<time>2020-07-28T04:43:24.000Z</time>
</trkpt>
<trkpt lat="31.7834740" lon="34.9573810">
<ele>309.000000</ele>
<time>2020-07-28T04:43:27.000Z</time>
</trkpt>
<trkpt lat="31.7838780" lon="34.9572690">
<ele>306.000000</ele>
<time>2020-07-28T04:43:55.000Z</time>
</trkpt>
<trkpt lat="31.7843670" lon="34.9571030">
<ele>303.000000</ele>
<time>2020-07-28T04:44:31.000Z</time>
</trkpt>
<trkpt lat="31.7845070" lon="34.9570410">
<ele>303.000000</ele>
<time>2020-07-28T04:44:44.000Z</time>
</trkpt>
<trkpt lat="31.7846290" lon="34.9569660">
<ele>303.000000</ele>
<time>2020-07-28T04:44:56.000Z</time>
</trkpt>
<trkpt lat="31.7850250" lon="34.9566530">
<ele>305.000000</ele>
<time>2020-07-28T04:45:37.000Z</time>
</trkpt>
<trkpt lat="31.7856000" lon="34.9561290">
<ele>301.000000</ele>
<time>2020-07-28T04:46:31.000Z</time>
</trkpt>
<trkpt lat="31.7857170" lon="34.9560510">
<ele>302.000000</ele>
<time>2020-07-28T04:46:40.000Z</time>
</trkpt>
<trkpt lat="31.7860030" lon="34.9559240">
<ele>302.000000</ele>
<time>2020-07-28T04:47:03.000Z</time>
</trkpt>
<trkpt lat="31.7862210" lon="34.9556970">
<ele>299.000000</ele>
<time>2020-07-28T04:47:24.000Z</time>
</trkpt>
<trkpt lat="31.7864430" lon="34.9555740">
<ele>297.000000</ele>
<time>2020-07-28T04:47:41.000Z</time>
</trkpt>
<trkpt lat="31.7867170" lon="34.9554880">
<ele>295.000000</ele>
<time>2020-07-28T04:47:59.000Z</time>
</trkpt>
<trkpt lat="31.7873580" lon="34.9553670">
<ele>290.000000</ele>
<time>2020-07-28T04:48:40.000Z</time>
</trkpt>
<trkpt lat="31.7878760" lon="34.9551960">
<ele>285.000000</ele>
<time>2020-07-28T04:49:14.000Z</time>
</trkpt>
<trkpt lat="31.7880110" lon="34.9551780">
<ele>284.000000</ele>
<time>2020-07-28T04:49:24.000Z</time>
</trkpt>
<trkpt lat="31.7880990" lon="34.9551910">
<ele>283.000000</ele>
<time>2020-07-28T04:49:32.000Z</time>
</trkpt>
<trkpt lat="31.7882140" lon="34.9553090">
<ele>282.000000</ele>
<time>2020-07-28T04:49:45.000Z</time>
</trkpt>
<trkpt lat="31.7881640" lon="34.9554050">
<ele>282.000000</ele>
<time>2020-07-28T04:49:53.000Z</time>
</trkpt>
<trkpt lat="31.7880910" lon="34.9554990">
<ele>282.000000</ele>
<time>2020-07-28T04:50:03.000Z</time>
</trkpt>
<trkpt lat="31.7879030" lon="34.9556430">
<ele>284.000000</ele>
<time>2020-07-28T04:50:22.000Z</time>
</trkpt>
<trkpt lat="31.7876950" lon="34.9558420">
<ele>287.000000</ele>
<time>2020-07-28T04:50:51.000Z</time>
</trkpt>
<trkpt lat="31.7872230" lon="34.9561390">
<ele>289.000000</ele>
<time>2020-07-28T04:51:53.000Z</time>
</trkpt>
<trkpt lat="31.7867800" lon="34.9563460">
<ele>291.000000</ele>
<time>2020-07-28T04:52:39.000Z</time>
</trkpt>
<trkpt lat="31.7866590" lon="34.9564170">
<ele>292.000000</ele>
<time>2020-07-28T04:52:52.000Z</time>
</trkpt>
<trkpt lat="31.7865200" lon="34.9565240">
<ele>292.000000</ele>
<time>2020-07-28T04:53:08.000Z</time>
</trkpt>
<trkpt lat="31.7861890" lon="34.9568850">
<ele>292.000000</ele>
<time>2020-07-28T04:53:48.000Z</time>
</trkpt>
<trkpt lat="31.7858210" lon="34.9571700">
<ele>293.000000</ele>
<time>2020-07-28T04:54:26.000Z</time>
</trkpt>
<trkpt lat="31.7853430" lon="34.9576260">
<ele>292.000000</ele>
<time>2020-07-28T04:55:13.000Z</time>
</trkpt>
<trkpt lat="31.7850010" lon="34.9579230">
<ele>289.000000</ele>
<time>2020-07-28T04:55:44.000Z</time>
</trkpt>
<trkpt lat="31.7845220" lon="34.9583920">
<ele>287.000000</ele>
<time>2020-07-28T04:56:28.000Z</time>
</trkpt>
<trkpt lat="31.7840060" lon="34.9588980">
<ele>288.000000</ele>
<time>2020-07-28T04:57:32.000Z</time>
</trkpt>
<trkpt lat="31.7834540" lon="34.9592170">
<ele>293.000000</ele>
<time>2020-07-28T04:58:54.000Z</time>
</trkpt>
<trkpt lat="31.7829620" lon="34.9594470">
<ele>301.000000</ele>
<time>2020-07-28T05:00:04.000Z</time>
</trkpt>
<trkpt lat="31.7826870" lon="34.9597200">
<ele>305.000000</ele>
<time>2020-07-28T05:00:45.000Z</time>
</trkpt>
<trkpt lat="31.7826180" lon="34.9598540">
<ele>305.000000</ele>
<time>2020-07-28T05:01:01.000Z</time>
</trkpt>
<trkpt lat="31.7826550" lon="34.9599620">
<ele>304.000000</ele>
<time>2020-07-28T05:01:12.000Z</time>
</trkpt>
<trkpt lat="31.7827640" lon="34.9601550">
<ele>301.000000</ele>
<time>2020-07-28T05:01:28.000Z</time>
</trkpt>
<trkpt lat="31.7827680" lon="34.9602680">
<ele>300.000000</ele>
<time>2020-07-28T05:01:36.000Z</time>
</trkpt>
<trkpt lat="31.7827420" lon="34.9603900">
<ele>301.000000</ele>
<time>2020-07-28T05:01:45.000Z</time>
</trkpt>
<trkpt lat="31.7826880" lon="34.9605150">
<ele>302.000000</ele>
<time>2020-07-28T05:01:54.000Z</time>
</trkpt>
<trkpt lat="31.7825470" lon="34.9612510">
<ele>300.000000</ele>
<time>2020-07-28T05:02:43.000Z</time>
</trkpt>
<trkpt lat="31.7822810" lon="34.9619760">
<ele>300.000000</ele>
<time>2020-07-28T05:03:34.000Z</time>
</trkpt>
<trkpt lat="31.7819460" lon="34.9627650">
<ele>300.000000</ele>
<time>2020-07-28T05:04:33.000Z</time>
</trkpt>
<trkpt lat="31.7818413" lon="34.9630405">
<ele>299.000000</ele>
<time>2020-07-28T05:04:53.000Z</time>
</trkpt>
<trkpt lat="31.7817540" lon="34.9631660">
<ele>299.000000</ele>
<time>2020-07-28T05:05:04.000Z</time>
</trkpt>
<trkpt lat="31.7816170" lon="34.9635440">
<ele>300.000000</ele>
<time>2020-07-28T05:05:35.000Z</time>
</trkpt>
<trkpt lat="31.7813960" lon="34.9639490">
<ele>303.000000</ele>
<time>2020-07-28T05:06:25.000Z</time>
</trkpt>
<trkpt lat="31.7811010" lon="34.9642940">
<ele>306.000000</ele>
<time>2020-07-28T05:07:18.000Z</time>
</trkpt>
<trkpt lat="31.7810120" lon="34.9644240">
<ele>308.000000</ele>
<time>2020-07-28T05:07:38.000Z</time>
</trkpt>
<trkpt lat="31.7809350" lon="34.9646290">
<ele>310.000000</ele>
<time>2020-07-28T05:08:06.000Z</time>
</trkpt>
<trkpt lat="31.7808900" lon="34.9647070">
<ele>311.000000</ele>
<time>2020-07-28T05:08:17.000Z</time>
</trkpt>
<trkpt lat="31.7805870" lon="34.9649070">
<ele>315.000000</ele>
<time>2020-07-28T05:09:07.000Z</time>
</trkpt>
<trkpt lat="31.7804730" lon="34.9650070">
<ele>317.000000</ele>
<time>2020-07-28T05:09:29.000Z</time>
</trkpt>
<trkpt lat="31.7801390" lon="34.9653970">
<ele>323.000000</ele>
<time>2020-07-28T05:10:40.000Z</time>
</trkpt>
<trkpt lat="31.7800550" lon="34.9655370">
<ele>323.999969</ele>
<time>2020-07-28T05:11:02.000Z</time>
</trkpt>
<trkpt lat="31.7799780" lon="34.9657280">
<ele>325.000000</ele>
<time>2020-07-28T05:11:30.000Z</time>
</trkpt>
<trkpt lat="31.7796430" lon="34.9662780">
<ele>334.000000</ele>
<time>2020-07-28T05:13:01.000Z</time>
</trkpt>
<trkpt lat="31.7794890" lon="34.9665710">
<ele>336.000000</ele>
<time>2020-07-28T05:13:33.000Z</time>
</trkpt>
<trkpt lat="31.7794230" lon="34.9667810">
<ele>336.000000</ele>
<time>2020-07-28T05:13:53.000Z</time>
</trkpt>
<trkpt lat="31.7793490" lon="34.9671020">
<ele>337.999969</ele>
<time>2020-07-28T05:14:21.000Z</time>
</trkpt>
<trkpt lat="31.7792940" lon="34.9674500">
<ele>339.000000</ele>
<time>2020-07-28T05:14:56.000Z</time>
</trkpt>
<trkpt lat="31.7792390" lon="34.9676800">
<ele>340.000000</ele>
<time>2020-07-28T05:15:21.000Z</time>
</trkpt>
<trkpt lat="31.7792290" lon="34.9679420">
<ele>342.000000</ele>
<time>2020-07-28T05:15:48.000Z</time>
</trkpt>
<trkpt lat="31.7792390" lon="34.9683360">
<ele>346.000031</ele>
<time>2020-07-28T05:16:32.000Z</time>
</trkpt>
<trkpt lat="31.7791480" lon="34.9689860">
<ele>351.000000</ele>
<time>2020-07-28T05:17:48.000Z</time>
</trkpt>
<trkpt lat="31.7790960" lon="34.9691970">
<ele>354.000000</ele>
<time>2020-07-28T05:18:09.000Z</time>
</trkpt>
<trkpt lat="31.7790370" lon="34.9692530">
<ele>355.000000</ele>
<time>2020-07-28T05:18:15.000Z</time>
</trkpt>
<trkpt lat="31.7790120" lon="34.9692770">
<ele>356.000000</ele>
<time>2020-07-28T05:18:18.000Z</time>
</trkpt>
<trkpt lat="31.7789280" lon="34.9692150">
<ele>356.000000</ele>
<time>2020-07-28T05:18:27.000Z</time>
</trkpt>
<trkpt lat="31.7788970" lon="34.9690960">
<ele>356.000000</ele>
<time>2020-07-28T05:18:36.000Z</time>
</trkpt>
<trkpt lat="31.7788460" lon="34.9687230">
<ele>354.000000</ele>
<time>2020-07-28T05:19:04.000Z</time>
</trkpt>
<trkpt lat="31.7785337" lon="34.9672582">
<ele>351.999969</ele>
<time>2020-07-28T05:20:46.000Z</time>
</trkpt>
<trkpt lat="31.7784350" lon="34.9667990">
<ele>351.000000</ele>
<time>2020-07-28T05:21:16.000Z</time>
</trkpt>
<trkpt lat="31.7782760" lon="34.9665780">
<ele>351.999969</ele>
<time>2020-07-28T05:21:47.000Z</time>
</trkpt>
<trkpt lat="31.7781470" lon="34.9664980">
<ele>351.000000</ele>
<time>2020-07-28T05:22:06.000Z</time>
</trkpt>
<trkpt lat="31.7779380" lon="34.9671020">
<ele>361.000000</ele>
<time>2020-07-28T05:23:27.000Z</time>
</trkpt>
<trkpt lat="31.7777860" lon="34.9674430">
<ele>369.000000</ele>
<time>2020-07-28T05:24:33.000Z</time>
</trkpt>
<trkpt lat="31.7776000" lon="34.9680070">
<ele>376.999969</ele>
<time>2020-07-28T05:26:02.000Z</time>
</trkpt>
<trkpt lat="31.7775530" lon="34.9688190">
<ele>380.000000</ele>
<time>2020-07-28T05:27:20.000Z</time>
</trkpt>
<trkpt lat="31.7775680" lon="34.9697220">
<ele>378.000000</ele>
<time>2020-07-28T05:28:18.000Z</time>
</trkpt>
<trkpt lat="31.7774680" lon="34.9703730">
<ele>376.999969</ele>
<time>2020-07-28T05:29:01.000Z</time>
</trkpt>
<trkpt lat="31.7774050" lon="34.9707790">
<ele>378.000000</ele>
<time>2020-07-28T05:29:37.000Z</time>
</trkpt>
<trkpt lat="31.7769100" lon="34.9715690">
<ele>390.000000</ele>
<time>2020-07-28T05:31:41.000Z</time>
</trkpt>
<trkpt lat="31.7768170" lon="34.9717980">
<ele>393.000000</ele>
<time>2020-07-28T05:32:12.000Z</time>
</trkpt>
<trkpt lat="31.7767570" lon="34.9720380">
<ele>394.000000</ele>
<time>2020-07-28T05:32:43.000Z</time>
</trkpt>
<trkpt lat="31.7767460" lon="34.9722810">
<ele>395.000000</ele>
<time>2020-07-28T05:33:13.000Z</time>
</trkpt>
<trkpt lat="31.7767130" lon="34.9725270">
<ele>396.000000</ele>
<time>2020-07-28T05:33:30.000Z</time>
</trkpt>
<trkpt lat="31.7767320" lon="34.9726790">
<ele>396.000000</ele>
<time>2020-07-28T05:33:39.000Z</time>
</trkpt>
<trkpt lat="31.7768290" lon="34.9729330">
<ele>393.000000</ele>
<time>2020-07-28T05:33:55.000Z</time>
</trkpt>
<trkpt lat="31.7768860" lon="34.9732460">
<ele>391.000000</ele>
<time>2020-07-28T05:34:13.000Z</time>
</trkpt>
<trkpt lat="31.7769770" lon="34.9735450">
<ele>387.999969</ele>
<time>2020-07-28T05:34:29.000Z</time>
</trkpt>
<trkpt lat="31.7770840" lon="34.9737040">
<ele>385.000031</ele>
<time>2020-07-28T05:34:39.000Z</time>
</trkpt>
<trkpt lat="31.7771150" lon="34.9737190">
<ele>385.000031</ele>
<time>2020-07-28T05:34:41.000Z</time>
</trkpt>
<trkpt lat="31.7771240" lon="34.9737010">
<ele>384.000000</ele>
<time>2020-07-28T05:34:42.000Z</time>
</trkpt>
<trkpt lat="31.7771930" lon="34.9735400">
<ele>384.000000</ele>
<time>2020-07-28T05:34:51.000Z</time>
</trkpt>
<trkpt lat="31.7773350" lon="34.9733830">
<ele>381.000000</ele>
<time>2020-07-28T05:35:03.000Z</time>
</trkpt>
<trkpt lat="31.7774610" lon="34.9732850">
<ele>379.000000</ele>
<time>2020-07-28T05:35:13.000Z</time>
</trkpt>
<trkpt lat="31.7775750" lon="34.9732320">
<ele>379.000000</ele>
<time>2020-07-28T05:35:21.000Z</time>
</trkpt>
<trkpt lat="31.7778080" lon="34.9731790">
<ele>376.999969</ele>
<time>2020-07-28T05:35:36.000Z</time>
</trkpt>
<trkpt lat="31.7780720" lon="34.9731450">
<ele>375.000000</ele>
<time>2020-07-28T05:35:54.000Z</time>
</trkpt>
<trkpt lat="31.7783526" lon="34.9731886">
<ele>372.000000</ele>
<time>2020-07-28T05:36:14.000Z</time>
</trkpt>
<trkpt lat="31.7784380" lon="34.9731500">
<ele>373.000000</ele>
<time>2020-07-28T05:36:20.000Z</time>
</trkpt>
<trkpt lat="31.7794120" lon="34.9733100">
<ele>369.000000</ele>
<time>2020-07-28T05:37:29.000Z</time>
</trkpt>
<trkpt lat="31.7797250" lon="34.9733160">
<ele>367.000000</ele>
<time>2020-07-28T05:37:52.000Z</time>
</trkpt>
<trkpt lat="31.7804750" lon="34.9731520">
<ele>367.000000</ele>
<time>2020-07-28T05:38:52.000Z</time>
</trkpt>
<trkpt lat="31.7806150" lon="34.9731550">
<ele>366.000000</ele>
<time>2020-07-28T05:39:07.000Z</time>
</trkpt>
<trkpt lat="31.7809280" lon="34.9732480">
<ele>361.000000</ele>
<time>2020-07-28T05:39:41.000Z</time>
</trkpt>
<trkpt lat="31.7811110" lon="34.9732790">
<ele>358.000000</ele>
<time>2020-07-28T05:40:01.000Z</time>
</trkpt>
<trkpt lat="31.7812970" lon="34.9732720">
<ele>356.000000</ele>
<time>2020-07-28T05:40:21.000Z</time>
</trkpt>
<trkpt lat="31.7814080" lon="34.9732440">
<ele>355.000000</ele>
<time>2020-07-28T05:40:34.000Z</time>
</trkpt>
<trkpt lat="31.7815580" lon="34.9731590">
<ele>356.000000</ele>
<time>2020-07-28T05:40:53.000Z</time>
</trkpt>
<trkpt lat="31.7819530" lon="34.9728610">
<ele>361.000000</ele>
<time>2020-07-28T05:41:48.000Z</time>
</trkpt>
<trkpt lat="31.7821470" lon="34.9727880">
<ele>362.000000</ele>
<time>2020-07-28T05:42:01.000Z</time>
</trkpt>
<trkpt lat="31.7822430" lon="34.9727870">
<ele>362.000000</ele>
<time>2020-07-28T05:42:07.000Z</time>
</trkpt>
<trkpt lat="31.7823810" lon="34.9728210">
<ele>360.000031</ele>
<time>2020-07-28T05:42:16.000Z</time>
</trkpt>
<trkpt lat="31.7824930" lon="34.9729010">
<ele>358.000000</ele>
<time>2020-07-28T05:42:25.000Z</time>
</trkpt>
<trkpt lat="31.7828950" lon="34.9733540">
<ele>350.000000</ele>
<time>2020-07-28T05:42:58.000Z</time>
</trkpt>
<trkpt lat="31.7831070" lon="34.9735230">
<ele>347.000000</ele>
<time>2020-07-28T05:43:13.000Z</time>
</trkpt>
<trkpt lat="31.7832260" lon="34.9736180">
<ele>346.000031</ele>
<time>2020-07-28T05:43:22.000Z</time>
</trkpt>
<trkpt lat="31.7834130" lon="34.9737070">
<ele>343.000000</ele>
<time>2020-07-28T05:43:34.000Z</time>
</trkpt>
<trkpt lat="31.7836780" lon="34.9737650">
<ele>339.000000</ele>
<time>2020-07-28T05:43:50.000Z</time>
</trkpt>
<trkpt lat="31.7838040" lon="34.9737670">
<ele>337.999969</ele>
<time>2020-07-28T05:43:58.000Z</time>
</trkpt>
<trkpt lat="31.7839960" lon="34.9737300">
<ele>337.000000</ele>
<time>2020-07-28T05:44:10.000Z</time>
</trkpt>
<trkpt lat="31.7841520" lon="34.9736340">
<ele>336.000000</ele>
<time>2020-07-28T05:44:25.000Z</time>
</trkpt>
<trkpt lat="31.7842200" lon="34.9735550">
<ele>337.000000</ele>
<time>2020-07-28T05:44:40.000Z</time>
</trkpt>
<trkpt lat="31.7842540" lon="34.9734850">
<ele>337.999969</ele>
<time>2020-07-28T05:44:51.000Z</time>
</trkpt>
<trkpt lat="31.7842820" lon="34.9733350">
<ele>339.000000</ele>
<time>2020-07-28T05:45:12.000Z</time>
</trkpt>
<trkpt lat="31.7842660" lon="34.9728740">
<ele>347.000000</ele>
<time>2020-07-28T05:46:14.000Z</time>
</trkpt>
<trkpt lat="31.7842970" lon="34.9727930">
<ele>348.000000</ele>
<time>2020-07-28T05:46:25.000Z</time>
</trkpt>
<trkpt lat="31.7843360" lon="34.9727600">
<ele>348.000000</ele>
<time>2020-07-28T05:46:28.000Z</time>
</trkpt>
<trkpt lat="31.7844180" lon="34.9727430">
<ele>348.000000</ele>
<time>2020-07-28T05:46:33.000Z</time>
</trkpt>
<trkpt lat="31.7847020" lon="34.9728280">
<ele>343.000000</ele>
<time>2020-07-28T05:46:52.000Z</time>
</trkpt>
<trkpt lat="31.7848640" lon="34.9728350">
<ele>341.000000</ele>
<time>2020-07-28T05:47:02.000Z</time>
</trkpt>
<trkpt lat="31.7851070" lon="34.9727370">
<ele>341.000000</ele>
<time>2020-07-28T05:47:19.000Z</time>
</trkpt>
<trkpt lat="31.7851910" lon="34.9727230">
<ele>341.000000</ele>
<time>2020-07-28T05:47:24.000Z</time>
</trkpt>
<trkpt lat="31.7856010" lon="34.9728280">
<ele>336.000000</ele>
<time>2020-07-28T05:47:53.000Z</time>
</trkpt>
<trkpt lat="31.7858850" lon="34.9727550">
<ele>335.000031</ele>
<time>2020-07-28T05:48:12.000Z</time>
</trkpt>
<trkpt lat="31.7860700" lon="34.9727360">
<ele>334.000000</ele>
<time>2020-07-28T05:48:23.000Z</time>
</trkpt>
<trkpt lat="31.7866520" lon="34.9727990">
<ele>326.000000</ele>
<time>2020-07-28T05:48:55.000Z</time>
</trkpt>
<trkpt lat="31.7867800" lon="34.9728640">
<ele>325.000000</ele>
<time>2020-07-28T05:49:06.000Z</time>
</trkpt>
<trkpt lat="31.7869260" lon="34.9729040">
<ele>323.999969</ele>
<time>2020-07-28T05:49:18.000Z</time>
</trkpt>
<trkpt lat="31.7870420" lon="34.9729000">
<ele>323.000000</ele>
<time>2020-07-28T05:49:28.000Z</time>
</trkpt>
<trkpt lat="31.7871640" lon="34.9728480">
<ele>323.999969</ele>
<time>2020-07-28T05:49:38.000Z</time>
</trkpt>
<trkpt lat="31.7873178" lon="34.9727659">
<ele>325.000000</ele>
<time>2020-07-28T05:49:52.000Z</time>
</trkpt>
<trkpt lat="31.7874330" lon="34.9726920">
<ele>326.000000</ele>
<time>2020-07-28T05:50:02.000Z</time>
</trkpt>
<trkpt lat="31.7875350" lon="34.9727050">
<ele>326.000000</ele>
<time>2020-07-28T05:50:09.000Z</time>
</trkpt>
<trkpt lat="31.7878760" lon="34.9728780">
<ele>322.000000</ele>
<time>2020-07-28T05:50:34.000Z</time>
</trkpt>
<trkpt lat="31.7880210" lon="34.9729170">
<ele>322.000000</ele>
<time>2020-07-28T05:50:44.000Z</time>
</trkpt>
<trkpt lat="31.7882690" lon="34.9729340">
<ele>321.000031</ele>
<time>2020-07-28T05:51:01.000Z</time>
</trkpt>
<trkpt lat="31.7884250" lon="34.9729710">
<ele>320.000000</ele>
<time>2020-07-28T05:51:11.000Z</time>
</trkpt>
<trkpt lat="31.7886160" lon="34.9730750">
<ele>317.000000</ele>
<time>2020-07-28T05:51:24.000Z</time>
</trkpt>
<trkpt lat="31.7887490" lon="34.9731200">
<ele>315.000000</ele>
<time>2020-07-28T05:51:33.000Z</time>
</trkpt>
<trkpt lat="31.7888460" lon="34.9731160">
<ele>315.000000</ele>
<time>2020-07-28T05:51:39.000Z</time>
</trkpt>
<trkpt lat="31.7889330" lon="34.9730910">
<ele>314.000000</ele>
<time>2020-07-28T05:51:45.000Z</time>
</trkpt>
<trkpt lat="31.7890110" lon="34.9730450">
<ele>314.000000</ele>
<time>2020-07-28T05:51:51.000Z</time>
</trkpt>
<trkpt lat="31.7891240" lon="34.9728870">
<ele>314.000000</ele>
<time>2020-07-28T05:52:05.000Z</time>
</trkpt>
<trkpt lat="31.7891510" lon="34.9728160">
<ele>314.000000</ele>
<time>2020-07-28T05:52:10.000Z</time>
</trkpt>
<trkpt lat="31.7892060" lon="34.9726220">
<ele>314.000000</ele>
<time>2020-07-28T05:52:23.000Z</time>
</trkpt>
<trkpt lat="31.7892030" lon="34.9722430">
<ele>314.000000</ele>
<time>2020-07-28T05:52:48.000Z</time>
</trkpt>
<trkpt lat="31.7891710" lon="34.9719070">
<ele>312.999969</ele>
<time>2020-07-28T05:53:09.000Z</time>
</trkpt>
<trkpt lat="31.7891730" lon="34.9717930">
<ele>312.000000</ele>
<time>2020-07-28T05:53:16.000Z</time>
</trkpt>
<trkpt lat="31.7892000" lon="34.9714690">
<ele>311.000000</ele>
<time>2020-07-28T05:53:37.000Z</time>
</trkpt>
<trkpt lat="31.7893300" lon="34.9706000">
<ele>308.000000</ele>
<time>2020-07-28T05:54:31.000Z</time>
</trkpt>
<trkpt lat="31.7894160" lon="34.9703010">
<ele>307.000000</ele>
<time>2020-07-28T05:54:50.000Z</time>
</trkpt>
<trkpt lat="31.7894930" lon="34.9701470">
<ele>306.000000</ele>
<time>2020-07-28T05:54:58.000Z</time>
</trkpt>
<trkpt lat="31.7895976" lon="34.9700404">
<ele>304.000000</ele>
<time>2020-07-28T05:55:06.000Z</time>
</trkpt>
<trkpt lat="31.7897070" lon="34.9699440">
<ele>302.000000</ele>
<time>2020-07-28T05:55:14.000Z</time>
</trkpt>
<trkpt lat="31.7899800" lon="34.9698150">
<ele>298.000000</ele>
<time>2020-07-28T05:55:30.000Z</time>
</trkpt>
<trkpt lat="31.7902080" lon="34.9697610">
<ele>295.000000</ele>
<time>2020-07-28T05:55:53.000Z</time>
</trkpt>
<trkpt lat="31.7903910" lon="34.9696540">
<ele>292.000000</ele>
<time>2020-07-28T05:56:16.000Z</time>
</trkpt>
<trkpt lat="31.7905280" lon="34.9694820">
<ele>288.000000</ele>
<time>2020-07-28T05:56:38.000Z</time>
</trkpt>
<trkpt lat="31.7906830" lon="34.9692570">
<ele>284.000000</ele>
<time>2020-07-28T05:57:03.000Z</time>
</trkpt>
<trkpt lat="31.7909290" lon="34.9691280">
<ele>280.000000</ele>
<time>2020-07-28T05:57:21.000Z</time>
</trkpt>
<trkpt lat="31.7913850" lon="34.9693430">
<ele>279.000000</ele>
<time>2020-07-28T05:57:53.000Z</time>
</trkpt>
<trkpt lat="31.7916860" lon="34.9693540">
<ele>276.000000</ele>
<time>2020-07-28T05:58:11.000Z</time>
</trkpt>
<trkpt lat="31.7922240" lon="34.9688920">
<ele>269.000000</ele>
<time>2020-07-28T05:58:53.000Z</time>
</trkpt>
<trkpt lat="31.7923420" lon="34.9685490">
<ele>266.000000</ele>
<time>2020-07-28T05:59:15.000Z</time>
</trkpt>
<trkpt lat="31.7922150" lon="34.9685060">
<ele>266.000000</ele>
<time>2020-07-28T05:59:25.000Z</time>
</trkpt>
<trkpt lat="31.7918500" lon="34.9685810">
<ele>267.000000</ele>
<time>2020-07-28T05:59:52.000Z</time>
</trkpt>
<trkpt lat="31.7913120" lon="34.9684850">
<ele>267.000000</ele>
<time>2020-07-28T06:00:36.000Z</time>
</trkpt>
<trkpt lat="31.7909020" lon="34.9684520">
<ele>268.000000</ele>
<time>2020-07-28T06:01:13.000Z</time>
</trkpt>
<trkpt lat="31.7906920" lon="34.9683670">
<ele>268.000000</ele>
<time>2020-07-28T06:01:34.000Z</time>
</trkpt>
<trkpt lat="31.7899800" lon="34.9682490">
<ele>271.000000</ele>
<time>2020-07-28T06:02:45.000Z</time>
</trkpt>
<trkpt lat="31.7892870" lon="34.9678090">
<ele>273.000000</ele>
<time>2020-07-28T06:03:53.000Z</time>
</trkpt>
<trkpt lat="31.7891690" lon="34.9675510">
<ele>270.000000</ele>
<time>2020-07-28T06:04:11.000Z</time>
</trkpt>
<trkpt lat="31.7889230" lon="34.9671540">
<ele>269.000000</ele>
<time>2020-07-28T06:04:37.000Z</time>
</trkpt>
<trkpt lat="31.7889590" lon="34.9669930">
<ele>267.000000</ele>
<time>2020-07-28T06:04:45.000Z</time>
</trkpt>
<trkpt lat="31.7890500" lon="34.9668060">
<ele>262.000000</ele>
<time>2020-07-28T06:04:55.000Z</time>
</trkpt>
<trkpt lat="31.7891140" lon="34.9666180">
<ele>259.000000</ele>
<time>2020-07-28T06:05:05.000Z</time>
</trkpt>
<trkpt lat="31.7891140" lon="34.9663710">
<ele>258.000000</ele>
<time>2020-07-28T06:05:26.000Z</time>
</trkpt>
<trkpt lat="31.7889180" lon="34.9661780">
<ele>260.000000</ele>
<time>2020-07-28T06:05:56.000Z</time>
</trkpt>
<trkpt lat="31.7884300" lon="34.9658350">
<ele>265.000000</ele>
<time>2020-07-28T06:06:58.000Z</time>
</trkpt>
<trkpt lat="31.7882710" lon="34.9657110">
<ele>266.000000</ele>
<time>2020-07-28T06:07:16.000Z</time>
</trkpt>
<trkpt lat="31.7880836" lon="34.9654892">
<ele>266.000000</ele>
<time>2020-07-28T06:07:41.000Z</time>
</trkpt>
<trkpt lat="31.7879000" lon="34.9652610">
<ele>266.000000</ele>
<time>2020-07-28T06:08:04.000Z</time>
</trkpt>
<trkpt lat="31.7877190" lon="34.9650410">
<ele>265.000000</ele>
<time>2020-07-28T06:08:24.000Z</time>
</trkpt>
<trkpt lat="31.7876070" lon="34.9649310">
<ele>266.000000</ele>
<time>2020-07-28T06:08:35.000Z</time>
</trkpt>
<trkpt lat="31.7880760" lon="34.9647280">
<ele>262.000000</ele>
<time>2020-07-28T06:09:09.000Z</time>
</trkpt>
<trkpt lat="31.7887370" lon="34.9648000">
<ele>255.000000</ele>
<time>2020-07-28T06:09:48.000Z</time>
</trkpt>
<trkpt lat="31.7893540" lon="34.9647300">
<ele>249.000000</ele>
<time>2020-07-28T06:10:25.000Z</time>
</trkpt>
<trkpt lat="31.7896400" lon="34.9646410">
<ele>245.000000</ele>
<time>2020-07-28T06:10:43.000Z</time>
</trkpt>
<trkpt lat="31.7899830" lon="34.9644840">
<ele>241.000000</ele>
<time>2020-07-28T06:11:06.000Z</time>
</trkpt>
<trkpt lat="31.7901870" lon="34.9643630">
<ele>239.000000</ele>
<time>2020-07-28T06:11:20.000Z</time>
</trkpt>
<trkpt lat="31.7907810" lon="34.9641000">
<ele>232.999985</ele>
<time>2020-07-28T06:11:58.000Z</time>
</trkpt>
<trkpt lat="31.7912180" lon="34.9639740">
<ele>229.000000</ele>
<time>2020-07-28T06:12:26.000Z</time>
</trkpt>
<trkpt lat="31.7914450" lon="34.9639460">
<ele>225.999985</ele>
<time>2020-07-28T06:12:41.000Z</time>
</trkpt>
<trkpt lat="31.7916620" lon="34.9638480">
<ele>224.000000</ele>
<time>2020-07-28T06:12:55.000Z</time>
</trkpt>
<trkpt lat="31.7918020" lon="34.9637470">
<ele>223.000000</ele>
<time>2020-07-28T06:13:06.000Z</time>
</trkpt>
<trkpt lat="31.7920180" lon="34.9635310">
<ele>222.000000</ele>
<time>2020-07-28T06:13:26.000Z</time>
</trkpt>
<trkpt lat="31.7922410" lon="34.9632550">
<ele>221.000000</ele>
<time>2020-07-28T06:13:49.000Z</time>
</trkpt>
<trkpt lat="31.7925040" lon="34.9630040">
<ele>219.000015</ele>
<time>2020-07-28T06:14:12.000Z</time>
</trkpt>
<trkpt lat="31.7928780" lon="34.9626910">
<ele>215.000000</ele>
<time>2020-07-28T06:14:42.000Z</time>
</trkpt>
<trkpt lat="31.7934890" lon="34.9620180">
<ele>211.000000</ele>
<time>2020-07-28T06:15:40.000Z</time>
</trkpt>
<trkpt lat="31.7938370" lon="34.9617270">
<ele>209.000000</ele>
<time>2020-07-28T06:16:11.000Z</time>
</trkpt>
<trkpt lat="31.7940500" lon="34.9614810">
<ele>207.999985</ele>
<time>2020-07-28T06:16:32.000Z</time>
</trkpt>
<trkpt lat="31.7942320" lon="34.9612160">
<ele>207.000000</ele>
<time>2020-07-28T06:16:56.000Z</time>
</trkpt>
<trkpt lat="31.7941250" lon="34.9610420">
<ele>209.000000</ele>
<time>2020-07-28T06:17:17.000Z</time>
</trkpt>
<trkpt lat="31.7941110" lon="34.9609280">
<ele>209.000000</ele>
<time>2020-07-28T06:17:28.000Z</time>
</trkpt>
<trkpt lat="31.7941990" lon="34.9606990">
<ele>210.000000</ele>
<time>2020-07-28T06:17:53.000Z</time>
</trkpt>
<trkpt lat="31.7942160" lon="34.9605860">
<ele>210.000000</ele>
<time>2020-07-28T06:18:04.000Z</time>
</trkpt>
<trkpt lat="31.7941750" lon="34.9603540">
<ele>212.000015</ele>
<time>2020-07-28T06:18:26.000Z</time>
</trkpt>
<trkpt lat="31.7941870" lon="34.9602230">
<ele>213.000000</ele>
<time>2020-07-28T06:18:36.000Z</time>
</trkpt>
<trkpt lat="31.7941610" lon="34.9601200">
<ele>214.000000</ele>
<time>2020-07-28T06:18:44.000Z</time>
</trkpt>
<trkpt lat="31.7940960" lon="34.9600330">
<ele>215.000000</ele>
<time>2020-07-28T06:18:53.000Z</time>
</trkpt>
<trkpt lat="31.7941040" lon="34.9598590">
<ele>214.000000</ele>
<time>2020-07-28T06:19:06.000Z</time>
</trkpt>
<trkpt lat="31.7942700" lon="34.9596010">
<ele>213.000000</ele>
<time>2020-07-28T06:19:30.000Z</time>
</trkpt>
<trkpt lat="31.7942960" lon="34.9594800">
<ele>213.000000</ele>
<time>2020-07-28T06:19:38.000Z</time>
</trkpt>
<trkpt lat="31.7942830" lon="34.9590840">
<ele>211.000000</ele>
<time>2020-07-28T06:20:00.000Z</time>
</trkpt>
<trkpt lat="31.7942910" lon="34.9589460">
<ele>209.000000</ele>
<time>2020-07-28T06:20:08.000Z</time>
</trkpt>
<trkpt lat="31.7943490" lon="34.9588090">
<ele>207.999985</ele>
<time>2020-07-28T06:20:17.000Z</time>
</trkpt>
<trkpt lat="31.7945830" lon="34.9586360">
<ele>207.999985</ele>
<time>2020-07-28T06:20:37.000Z</time>
</trkpt>
<trkpt lat="31.7947090" lon="34.9585230">
<ele>207.999985</ele>
<time>2020-07-28T06:20:49.000Z</time>
</trkpt>
<trkpt lat="31.7948518" lon="34.9582733">
<ele>207.000000</ele>
<time>2020-07-28T06:21:08.000Z</time>
</trkpt>
<trkpt lat="31.7951500" lon="34.9577550">
<ele>205.000015</ele>
<time>2020-07-28T06:21:48.000Z</time>
</trkpt>
<trkpt lat="31.7954270" lon="34.9574020">
<ele>205.000015</ele>
<time>2020-07-28T06:22:19.000Z</time>
</trkpt>
<trkpt lat="31.7956100" lon="34.9570910">
<ele>203.000000</ele>
<time>2020-07-28T06:22:43.000Z</time>
</trkpt>
<trkpt lat="31.7959610" lon="34.9566190">
<ele>200.999985</ele>
<time>2020-07-28T06:23:22.000Z</time>
</trkpt>
<trkpt lat="31.7960690" lon="34.9564240">
<ele>200.999985</ele>
<time>2020-07-28T06:23:36.000Z</time>
</trkpt>
<trkpt lat="31.7962580" lon="34.9558750">
<ele>198.000000</ele>
<time>2020-07-28T06:24:13.000Z</time>
</trkpt>
<trkpt lat="31.7964480" lon="34.9555330">
<ele>198.000000</ele>
<time>2020-07-28T06:24:38.000Z</time>
</trkpt>
<trkpt lat="31.7969120" lon="34.9548410">
<ele>196.000000</ele>
<time>2020-07-28T06:25:39.000Z</time>
</trkpt>
<trkpt lat="31.7969180" lon="34.9549360">
<ele>197.000000</ele>
<time>2020-07-28T06:25:49.000Z</time>
</trkpt>
<trkpt lat="31.7970740" lon="34.9550460">
<ele>199.000000</ele>
<time>2020-07-28T06:26:11.000Z</time>
</trkpt>
<trkpt lat="31.7971700" lon="34.9550650">
<ele>200.000000</ele>
<time>2020-07-28T06:26:23.000Z</time>
</trkpt>
<trkpt lat="31.7973830" lon="34.9550370">
<ele>200.999985</ele>
<time>2020-07-28T06:26:49.000Z</time>
</trkpt>
<trkpt lat="31.7974750" lon="34.9549770">
<ele>202.000000</ele>
<time>2020-07-28T06:27:02.000Z</time>
</trkpt>
<trkpt lat="31.7975840" lon="34.9549410">
<ele>200.999985</ele>
<time>2020-07-28T06:27:12.000Z</time>
</trkpt>
<trkpt lat="31.7977110" lon="34.9549530">
<ele>200.000000</ele>
<time>2020-07-28T06:27:19.000Z</time>
</trkpt>
<trkpt lat="31.7979340" lon="34.9548760">
<ele>198.000000</ele>
<time>2020-07-28T06:27:34.000Z</time>
</trkpt>
<trkpt lat="31.7982000" lon="34.9547670">
<ele>195.000000</ele>
<time>2020-07-28T06:27:51.000Z</time>
</trkpt>
<trkpt lat="31.7985410" lon="34.9545280">
<ele>190.000000</ele>
<time>2020-07-28T06:28:28.000Z</time>
</trkpt>
<trkpt lat="31.7987370" lon="34.9544560">
<ele>186.000000</ele>
<time>2020-07-28T06:28:50.000Z</time>
</trkpt>
<trkpt lat="31.7989150" lon="34.9544680">
<ele>182.000000</ele>
<time>2020-07-28T06:29:09.000Z</time>
</trkpt>
<trkpt lat="31.7987970" lon="34.9549410">
<ele>185.000000</ele>
<time>2020-07-28T06:29:55.000Z</time>
</trkpt>
<trkpt lat="31.7986640" lon="34.9552640">
<ele>188.000000</ele>
<time>2020-07-28T06:30:28.000Z</time>
</trkpt>
<trkpt lat="31.7986550" lon="34.9554000">
<ele>188.000000</ele>
<time>2020-07-28T06:30:40.000Z</time>
</trkpt>
<trkpt lat="31.7986750" lon="34.9556530">
<ele>187.000015</ele>
<time>2020-07-28T06:31:00.000Z</time>
</trkpt>
<trkpt lat="31.7987750" lon="34.9560210">
<ele>185.000000</ele>
<time>2020-07-28T06:31:24.000Z</time>
</trkpt>
<trkpt lat="31.7988070" lon="34.9562800">
<ele>184.000000</ele>
<time>2020-07-28T06:31:41.000Z</time>
</trkpt>
<trkpt lat="31.7987864" lon="34.9565920">
<ele>185.000000</ele>
<time>2020-07-28T06:32:01.000Z</time>
</trkpt>
<trkpt lat="31.7987320" lon="34.9569690">
<ele>185.000000</ele>
<time>2020-07-28T06:32:26.000Z</time>
</trkpt>
<trkpt lat="31.7987260" lon="34.9573290">
<ele>183.000000</ele>
<time>2020-07-28T06:32:49.000Z</time>
</trkpt>
<trkpt lat="31.7988160" lon="34.9575010">
<ele>182.000000</ele>
<time>2020-07-28T06:33:04.000Z</time>
</trkpt>
<trkpt lat="31.7988820" lon="34.9576820">
<ele>182.000000</ele>
<time>2020-07-28T06:33:20.000Z</time>
</trkpt>
<trkpt lat="31.7988030" lon="34.9576920">
<ele>182.000000</ele>
<time>2020-07-28T06:33:27.000Z</time>
</trkpt>
<trkpt lat="31.7985000" lon="34.9578460">
<ele>185.000000</ele>
<time>2020-07-28T06:33:58.000Z</time>
</trkpt>
<trkpt lat="31.7981370" lon="34.9581980">
<ele>188.000000</ele>
<time>2020-07-28T06:34:53.000Z</time>
</trkpt>
<trkpt lat="31.7980100" lon="34.9583720">
<ele>189.000000</ele>
<time>2020-07-28T06:35:17.000Z</time>
</trkpt>
<trkpt lat="31.7977970" lon="34.9588090">
<ele>192.000000</ele>
<time>2020-07-28T06:36:03.000Z</time>
</trkpt>
<trkpt lat="31.7975850" lon="34.9591720">
<ele>191.000000</ele>
<time>2020-07-28T06:36:36.000Z</time>
</trkpt>
<trkpt lat="31.7971800" lon="34.9595330">
<ele>193.999985</ele>
<time>2020-07-28T06:37:25.000Z</time>
</trkpt>
<trkpt lat="31.7969740" lon="34.9597880">
<ele>196.000000</ele>
<time>2020-07-28T06:37:58.000Z</time>
</trkpt>
<trkpt lat="31.7968380" lon="34.9598960">
<ele>196.000000</ele>
<time>2020-07-28T06:38:15.000Z</time>
</trkpt>
<trkpt lat="31.7967490" lon="34.9599940">
<ele>196.000000</ele>
<time>2020-07-28T06:38:29.000Z</time>
</trkpt>
<trkpt lat="31.7961220" lon="34.9606540">
<ele>200.000000</ele>
<time>2020-07-28T06:39:59.000Z</time>
</trkpt>
<trkpt lat="31.7960530" lon="34.9607720">
<ele>199.000000</ele>
<time>2020-07-28T06:40:10.000Z</time>
</trkpt>
<trkpt lat="31.7960270" lon="34.9609140">
<ele>199.000000</ele>
<time>2020-07-28T06:40:22.000Z</time>
</trkpt>
<trkpt lat="31.7961030" lon="34.9610500">
<ele>200.999985</ele>
<time>2020-07-28T06:40:35.000Z</time>
</trkpt>
<trkpt lat="31.7961080" lon="34.9611330">
<ele>200.999985</ele>
<time>2020-07-28T06:40:42.000Z</time>
</trkpt>
<trkpt lat="31.7960890" lon="34.9612150">
<ele>202.000000</ele>
<time>2020-07-28T06:40:49.000Z</time>
</trkpt>
<trkpt lat="31.7960450" lon="34.9612810">
<ele>202.000000</ele>
<time>2020-07-28T06:40:55.000Z</time>
</trkpt>
<trkpt lat="31.7958710" lon="34.9614310">
<ele>202.000000</ele>
<time>2020-07-28T06:41:16.000Z</time>
</trkpt>
<trkpt lat="31.7957430" lon="34.9615810">
<ele>202.000000</ele>
<time>2020-07-28T06:41:34.000Z</time>
</trkpt>
<trkpt lat="31.7955740" lon="34.9618560">
<ele>203.000000</ele>
<time>2020-07-28T06:42:04.000Z</time>
</trkpt>
<trkpt lat="31.7955560" lon="34.9619380">
<ele>203.000000</ele>
<time>2020-07-28T06:42:11.000Z</time>
</trkpt>
<trkpt lat="31.7955780" lon="34.9621040">
<ele>205.000015</ele>
<time>2020-07-28T06:42:25.000Z</time>
</trkpt>
<trkpt lat="31.7957000" lon="34.9625410">
<ele>209.000000</ele>
<time>2020-07-28T06:43:14.000Z</time>
</trkpt>
<trkpt lat="31.7957500" lon="34.9628790">
<ele>211.000000</ele>
<time>2020-07-28T06:43:52.000Z</time>
</trkpt>
<trkpt lat="31.7957720" lon="34.9630830">
<ele>212.000015</ele>
<time>2020-07-28T06:44:15.000Z</time>
</trkpt>
<trkpt lat="31.7958165" lon="34.9636901">
<ele>215.000000</ele>
<time>2020-07-28T06:45:11.000Z</time>
</trkpt>
<trkpt lat="31.7958080" lon="34.9640730">
<ele>217.000000</ele>
<time>2020-07-28T06:45:46.000Z</time>
</trkpt>
<trkpt lat="31.7956890" lon="34.9645240">
<ele>216.000000</ele>
<time>2020-07-28T06:46:24.000Z</time>
</trkpt>
<trkpt lat="31.7956370" lon="34.9646280">
<ele>216.000000</ele>
<time>2020-07-28T06:46:33.000Z</time>
</trkpt>
<trkpt lat="31.7955270" lon="34.9647160">
<ele>217.000000</ele>
<time>2020-07-28T06:46:46.000Z</time>
</trkpt>
<trkpt lat="31.7952640" lon="34.9648520">
<ele>219.000015</ele>
<time>2020-07-28T06:47:17.000Z</time>
</trkpt>
<trkpt lat="31.7950900" lon="34.9652600">
<ele>222.000000</ele>
<time>2020-07-28T06:48:05.000Z</time>
</trkpt>
<trkpt lat="31.7949440" lon="34.9654480">
<ele>224.000000</ele>
<time>2020-07-28T06:48:31.000Z</time>
</trkpt>
<trkpt lat="31.7944820" lon="34.9664520">
<ele>232.999985</ele>
<time>2020-07-28T06:50:43.000Z</time>
</trkpt>
<trkpt lat="31.7943060" lon="34.9667660">
<ele>239.000000</ele>
<time>2020-07-28T06:51:26.000Z</time>
</trkpt>
<trkpt lat="31.7942640" lon="34.9669520">
<ele>240.000000</ele>
<time>2020-07-28T06:51:49.000Z</time>
</trkpt>
<trkpt lat="31.7942530" lon="34.9670890">
<ele>240.000000</ele>
<time>2020-07-28T06:52:05.000Z</time>
</trkpt>
<trkpt lat="31.7942750" lon="34.9675050">
<ele>240.000000</ele>
<time>2020-07-28T06:52:39.000Z</time>
</trkpt>
<trkpt lat="31.7942500" lon="34.9678600">
<ele>240.000000</ele>
<time>2020-07-28T06:53:02.000Z</time>
</trkpt>
<trkpt lat="31.7942480" lon="34.9683180">
<ele>239.000000</ele>
<time>2020-07-28T06:53:32.000Z</time>
</trkpt>
<trkpt lat="31.7941470" lon="34.9692170">
<ele>238.000000</ele>
<time>2020-07-28T06:54:29.000Z</time>
</trkpt>
<trkpt lat="31.7941700" lon="34.9693530">
<ele>238.000000</ele>
<time>2020-07-28T06:54:37.000Z</time>
</trkpt>
<trkpt lat="31.7942170" lon="34.9694640">
<ele>238.000000</ele>
<time>2020-07-28T06:54:44.000Z</time>
</trkpt>
<trkpt lat="31.7943030" lon="34.9695940">
<ele>237.000015</ele>
<time>2020-07-28T06:54:53.000Z</time>
</trkpt>
<trkpt lat="31.7944090" lon="34.9696630">
<ele>236.000000</ele>
<time>2020-07-28T06:55:01.000Z</time>
</trkpt>
<trkpt lat="31.7945440" lon="34.9697000">
<ele>232.999985</ele>
<time>2020-07-28T06:55:10.000Z</time>
</trkpt>
<trkpt lat="31.7947940" lon="34.9697260">
<ele>228.000000</ele>
<time>2020-07-28T06:55:25.000Z</time>
</trkpt>
<trkpt lat="31.7950600" lon="34.9698600">
<ele>224.000000</ele>
<time>2020-07-28T06:55:41.000Z</time>
</trkpt>
<trkpt lat="31.7951870" lon="34.9699770">
<ele>222.000000</ele>
<time>2020-07-28T06:55:50.000Z</time>
</trkpt>
<trkpt lat="31.7953130" lon="34.9701370">
<ele>221.000000</ele>
<time>2020-07-28T06:56:01.000Z</time>
</trkpt>
<trkpt lat="31.7954370" lon="34.9703850">
<ele>221.000000</ele>
<time>2020-07-28T06:56:18.000Z</time>
</trkpt>
<trkpt lat="31.7957980" lon="34.9708250">
<ele>218.000000</ele>
<time>2020-07-28T06:56:54.000Z</time>
</trkpt>
<trkpt lat="31.7959650" lon="34.9710690">
<ele>216.000000</ele>
<time>2020-07-28T06:57:17.000Z</time>
</trkpt>
<trkpt lat="31.7960160" lon="34.9712270">
<ele>216.000000</ele>
<time>2020-07-28T06:57:29.000Z</time>
</trkpt>
<trkpt lat="31.7960440" lon="34.9715340">
<ele>217.000000</ele>
<time>2020-07-28T06:57:52.000Z</time>
</trkpt>
<trkpt lat="31.7959450" lon="34.9718500">
<ele>218.000000</ele>
<time>2020-07-28T06:58:16.000Z</time>
</trkpt>
<trkpt lat="31.7958430" lon="34.9720670">
<ele>217.000000</ele>
<time>2020-07-28T06:58:33.000Z</time>
</trkpt>
<trkpt lat="31.7957040" lon="34.9722810">
<ele>218.000000</ele>
<time>2020-07-28T06:58:50.000Z</time>
</trkpt>
<trkpt lat="31.7956964" lon="34.9724153">
<ele>217.000000</ele>
<time>2020-07-28T06:58:59.000Z</time>
</trkpt>
<trkpt lat="31.7956520" lon="34.9725110">
<ele>218.000000</ele>
<time>2020-07-28T06:59:06.000Z</time>
</trkpt>
<trkpt lat="31.7955730" lon="34.9737900">
<ele>214.000000</ele>
<time>2020-07-28T07:00:26.000Z</time>
</trkpt>
<trkpt lat="31.7955110" lon="34.9738700">
<ele>215.000000</ele>
<time>2020-07-28T07:00:33.000Z</time>
</trkpt>
<trkpt lat="31.7954460" lon="34.9737990">
<ele>217.000000</ele>
<time>2020-07-28T07:00:40.000Z</time>
</trkpt>
</trkseg>
</trk>
</gpx>
